"Pseudo-MPEC" for 1994 XM1

Created Wed Apr 25 14:01:08 2007 using Find_Orb


 Astrometry 
 Observing stations 
 Orbital elements 
 Residuals 
 Ephemeris 

Astrometry:
     J94X01M  C1994 12 09.20483 02 54 06.80 +07 53 52.5          17.7 V      691
     J94X01M  C1994 12 09.21353 02 53 36.03 +08 01 35.1                      691
     J94X01M  C1994 12 09.21942 02 53 14.58 +08 06 55.1                      691
     J94X01M  C1994 12 09.25389 02 51 00.96 +08 40 11.9                      691
     J94X01M  C1994 12 09.25935 02 50 38.40 +08 45 46.7         x            691
     J94X01M  C1994 12 09.26472 02 50 15.64 +08 51 26.8                      691
     J94X01M  C1994 12 09.32100 02 45 52.34 +09 57 22.2          17.0 V      691
     J94X01M  C1994 12 09.32645 02 45 24.06 +10 04 33.2         x            691
     J94X01M  C1994 12 09.37565 02 40 45.40 +11 16 18.0                      691
     J94X01M  C1994 12 09.38093 02 40 12.61 +11 24 54.0          16.5 V      691
     J94X01M  C1994 12 09.38803 02 39 27.60 +11 36 45.6         x            691
     J94X01M  C1994 12 09.39398 02 38 48.66 +11 46 59.9                      691
     J94X01M  C1994 12 09.39985 02 38 09.50 +11 57 21.8                      691

Station data:
(691) Steward Observatory, Kitt Peak-Spacewatch (N31.9580 W111.5990).

Orbital elements:
2007 HB15
   Perihelion 2007 Jun 2.906815 TT = 21:45:48 (JD 2454254.406815)
Epoch 2007 Apr 23.0 TT = JDT 2454213.5   Earth MOID: 0.0010   Ma: 0.0123
M 331.84467              (2000.0)            P               Q
n   0.68827969     Peri.  215.09095     -0.18852284      0.98205923     
a   1.27045536     Node    44.04290     -0.89959880     -0.17091945     
e   0.2548471      Incl.    0.35722     -0.39393036     -0.07966298     
P   1.43/523.03d   H   27.9     G   0.15   q 0.94668348  Q 1.59422723
From 8 observations 2007 Apr. 23-23 (1.9 hr);   RMS error 0.338 arcseconds

Residuals in arcseconds:
941209 691  .94+  .85-    941209 691  .44+  .47-    941209 691( 3.2+  .44-)   
941209 691  .16+  .32+    941209 691  1.2-  .37-    941209 691  .30+  .19-    
941209 691  1.6-  .69+    941209 691( 3.1-  2.7+)   941209 691  1.1-  .04-    
941209 691  .59+  .47+    941209 691  .41+  .17+    
941209 691( 1.8+  2.4-)   941209 691  1.1+  .29+    

Ephemerides:
Date (UT)  HH:MM   RA              Dec         delta   r     elong mag  '/hr   PA 
---- -- -- -----  ------------   ------------  ------ ------ ----- ---  ----- -----
1994 12 09 09:00  02 43 32.152   +11 38 34.24  409360 0.9871 144.7 16.8 88.18 323.3
1994 12 09 09:01  02 43 28.564   +11 39 45.08  408719 0.9871 144.7 16.8 88.45 323.3
1994 12 09 09:02  02 43 24.965   +11 40 56.15  408078 0.9871 144.7 16.8 88.73 323.3
1994 12 09 09:03  02 43 21.353   +11 42 07.43  407437 0.9871 144.7 16.8 89.01 323.3
1994 12 09 09:04  02 43 17.729   +11 43 18.94  406796 0.9871 144.7 16.8 89.29 323.3
1994 12 09 09:05  02 43 14.094   +11 44 30.67  406155 0.9871 144.7 16.8 89.57 323.3
1994 12 09 09:06  02 43 10.446   +11 45 42.63  405514 0.9871 144.7 16.8 89.86 323.3
1994 12 09 09:07  02 43 06.787   +11 46 54.81  404873 0.9871 144.7 16.8 90.14 323.3
1994 12 09 09:08  02 43 03.115   +11 48 07.21  404232 0.9871 144.7 16.8 90.43 323.3
1994 12 09 09:09  02 42 59.431   +11 49 19.85  403591 0.9871 144.7 16.8 90.72 323.3
1994 12 09 09:10  02 42 55.735   +11 50 32.71  402950 0.9871 144.7 16.8 91.00 323.3
1994 12 09 09:11  02 42 52.026   +11 51 45.80  402310 0.9871 144.7 16.8 91.29 323.3
1994 12 09 09:12  02 42 48.305   +11 52 59.11  401669 0.9871 144.7 16.8 91.59 323.3
1994 12 09 09:13  02 42 44.572   +11 54 12.67  401029 0.9871 144.7 16.8 91.88 323.3
1994 12 09 09:14  02 42 40.826   +11 55 26.45  400388 0.9871 144.6 16.8 92.17 323.3
1994 12 09 09:15  02 42 37.068   +11 56 40.46  399748 0.9871 144.6 16.8 92.47 323.3
1994 12 09 09:16  02 42 33.296   +11 57 54.72  399108 0.9871 144.6 16.8 92.76 323.3
1994 12 09 09:17  02 42 29.513   +11 59 09.20  398468 0.9871 144.6 16.8 93.06 323.3
1994 12 09 09:18  02 42 25.716   +12 00 23.92  397827 0.9871 144.6 16.8 93.36 323.3
1994 12 09 09:19  02 42 21.907   +12 01 38.88  397187 0.9871 144.6 16.8 93.66 323.3
1994 12 09 09:20  02 42 18.085   +12 02 54.08  396547 0.9871 144.6 16.8 93.97 323.3
1994 12 09 09:21  02 42 14.249   +12 04 09.52  395908 0.9870 144.6 16.8 94.27 323.3
1994 12 09 09:22  02 42 10.401   +12 05 25.20  395268 0.9870 144.6 16.8 94.58 323.3
1994 12 09 09:23  02 42 06.540   +12 06 41.12  394628 0.9870 144.6 16.7 94.88 323.3
1994 12 09 09:24  02 42 02.666   +12 07 57.29  393988 0.9870 144.6 16.7 95.19 323.3
1994 12 09 09:25  02 41 58.778   +12 09 13.70  393349 0.9870 144.6 16.7 95.50 323.3
1994 12 09 09:26  02 41 54.877   +12 10 30.35  392709 0.9870 144.6 16.7 95.81 323.3
1994 12 09 09:27  02 41 50.963   +12 11 47.26  392070 0.9870 144.6 16.7 96.12 323.3
1994 12 09 09:28  02 41 47.035   +12 13 04.40  391430 0.9870 144.5 16.7 96.44 323.2
1994 12 09 09:29  02 41 43.094   +12 14 21.80  390791 0.9870 144.5 16.7 96.75 323.2
1994 12 09 09:30  02 41 39.139   +12 15 39.45  390152 0.9870 144.5 16.7 97.07 323.2
1994 12 09 09:31  02 41 35.171   +12 16 57.35  389513 0.9870 144.5 16.7 97.39 323.2
1994 12 09 09:32  02 41 31.189   +12 18 15.50  388873 0.9870 144.5 16.7 97.71 323.2
1994 12 09 09:33  02 41 27.193   +12 19 33.91  388234 0.9870 144.5 16.7 98.03 323.2
1994 12 09 09:34  02 41 23.183   +12 20 52.57  387596 0.9870 144.5 16.7 98.36 323.2
1994 12 09 09:35  02 41 19.160   +12 22 11.49  386957 0.9870 144.5 16.7 98.68 323.2
1994 12 09 09:36  02 41 15.122   +12 23 30.66  386318 0.9870 144.5 16.7 99.01 323.2
1994 12 09 09:37  02 41 11.070   +12 24 50.09  385679 0.9870 144.5 16.7 99.34 323.2
1994 12 09 09:38  02 41 07.005   +12 26 09.79  385041 0.9870 144.5 16.7 99.67 323.2
1994 12 09 09:39  02 41 02.925   +12 27 29.74  384402 0.9870 144.5 16.7 100.0 323.2
1994 12 09 09:40  02 40 58.831   +12 28 49.96  383764 0.9870 144.5 16.7 100.3 323.2
1994 12 09 09:41  02 40 54.722   +12 30 10.43  383125 0.9870 144.4 16.7 100.7 323.2
1994 12 09 09:42  02 40 50.599   +12 31 31.18  382487 0.9870 144.4 16.7 101.0 323.2
1994 12 09 09:43  02 40 46.461   +12 32 52.19  381849 0.9870 144.4 16.7 101.3 323.2
1994 12 09 09:44  02 40 42.309   +12 34 13.47  381211 0.9870 144.4 16.7 101.7 323.2
1994 12 09 09:45  02 40 38.143   +12 35 35.01  380573 0.9870 144.4 16.7 102.0 323.2
1994 12 09 09:46  02 40 33.961   +12 36 56.83  379935 0.9870 144.4 16.7 102.4 323.2
1994 12 09 09:47  02 40 29.765   +12 38 18.91  379297 0.9869 144.4 16.7 102.7 323.2
1994 12 09 09:48  02 40 25.554   +12 39 41.27  378659 0.9869 144.4 16.7 103.1 323.2
1994 12 09 09:49  02 40 21.328   +12 41 03.90  378021 0.9869 144.4 16.7 103.4 323.2
1994 12 09 09:50  02 40 17.086   +12 42 26.81  377384 0.9869 144.4 16.7 103.8 323.2
1994 12 09 09:51  02 40 12.830   +12 43 50.00  376746 0.9869 144.4 16.7 104.1 323.2
1994 12 09 09:52  02 40 08.559   +12 45 13.46  376109 0.9869 144.4 16.7 104.5 323.2
1994 12 09 09:53  02 40 04.272   +12 46 37.20  375471 0.9869 144.4 16.6 104.8 323.2
1994 12 09 09:54  02 39 59.970   +12 48 01.22  374834 0.9869 144.3 16.6 105.2 323.2
1994 12 09 09:55  02 39 55.652   +12 49 25.52  374197 0.9869 144.3 16.6 105.5 323.1
1994 12 09 09:56  02 39 51.319   +12 50 50.11  373560 0.9869 144.3 16.6 105.9 323.1
1994 12 09 09:57  02 39 46.970   +12 52 14.98  372923 0.9869 144.3 16.6 106.2 323.1
1994 12 09 09:58  02 39 42.606   +12 53 40.14  372286 0.9869 144.3 16.6 106.6 323.1
1994 12 09 09:59  02 39 38.226   +12 55 05.58  371649 0.9869 144.3 16.6 107.0 323.1
1994 12 09 10:00  02 39 33.829   +12 56 31.32  371012 0.9869 144.3 16.6 107.3 323.1
1994 12 09 10:01  02 39 29.417   +12 57 57.34  370376 0.9869 144.3 16.6 107.7 323.1
1994 12 09 10:02  02 39 24.989   +12 59 23.65  369739 0.9869 144.3 16.6 108.1 323.1
1994 12 09 10:03  02 39 20.545   +13 00 50.26  369103 0.9869 144.3 16.6 108.5 323.1
1994 12 09 10:04  02 39 16.085   +13 02 17.16  368466 0.9869 144.3 16.6 108.8 323.1
1994 12 09 10:05  02 39 11.608   +13 03 44.36  367830 0.9869 144.2 16.6 109.2 323.1
1994 12 09 10:06  02 39 07.115   +13 05 11.86  367194 0.9869 144.2 16.6 109.6 323.1
1994 12 09 10:07  02 39 02.605   +13 06 39.65  366558 0.9869 144.2 16.6 110.0 323.1
1994 12 09 10:08  02 38 58.079   +13 08 07.74  365922 0.9869 144.2 16.6 110.4 323.1
1994 12 09 10:09  02 38 53.536   +13 09 36.14  365286 0.9869 144.2 16.6 110.7 323.1
1994 12 09 10:10  02 38 48.976   +13 11 04.84  364650 0.9869 144.2 16.6 111.1 323.1
1994 12 09 10:11  02 38 44.400   +13 12 33.84  364014 0.9869 144.2 16.6 111.5 323.1
1994 12 09 10:12  02 38 39.806   +13 14 03.15  363379 0.9869 144.2 16.6 111.9 323.1
1994 12 09 10:13  02 38 35.196   +13 15 32.77  362743 0.9869 144.2 16.6 112.3 323.1
1994 12 09 10:14  02 38 30.568   +13 17 02.70  362108 0.9868 144.2 16.6 112.7 323.1
1994 12 09 10:15  02 38 25.923   +13 18 32.94  361472 0.9868 144.2 16.6 113.1 323.1
1994 12 09 10:16  02 38 21.261   +13 20 03.49  360837 0.9868 144.1 16.6 113.5 323.1
1994 12 09 10:17  02 38 16.582   +13 21 34.36  360202 0.9868 144.1 16.6 113.9 323.1
1994 12 09 10:18  02 38 11.885   +13 23 05.54  359567 0.9868 144.1 16.6 114.3 323.1
1994 12 09 10:19  02 38 07.170   +13 24 37.03  358932 0.9868 144.1 16.6 114.7 323.0
1994 12 09 10:20  02 38 02.438   +13 26 08.85  358297 0.9868 144.1 16.6 115.1 323.0
1994 12 09 10:21  02 37 57.687   +13 27 40.99  357662 0.9868 144.1 16.5 115.5 323.0
1994 12 09 10:22  02 37 52.919   +13 29 13.45  357028 0.9868 144.1 16.5 115.9 323.0
1994 12 09 10:23  02 37 48.133   +13 30 46.23  356393 0.9868 144.1 16.5 116.3 323.0
1994 12 09 10:24  02 37 43.329   +13 32 19.34  355759 0.9868 144.1 16.5 116.7 323.0
1994 12 09 10:25  02 37 38.507   +13 33 52.77  355124 0.9868 144.1 16.5 117.2 323.0
1994 12 09 10:26  02 37 33.666   +13 35 26.54  354490 0.9868 144.0 16.5 117.6 323.0
1994 12 09 10:27  02 37 28.807   +13 37 00.63  353856 0.9868 144.0 16.5 118.0 323.0
1994 12 09 10:28  02 37 23.929   +13 38 35.05  353222 0.9868 144.0 16.5 118.4 323.0
1994 12 09 10:29  02 37 19.033   +13 40 09.81  352588 0.9868 144.0 16.5 118.9 323.0
1994 12 09 10:30  02 37 14.118   +13 41 44.91  351954 0.9868 144.0 16.5 119.3 323.0
1994 12 09 10:31  02 37 09.184   +13 43 20.34  351321 0.9868 144.0 16.5 119.7 323.0
1994 12 09 10:32  02 37 04.231   +13 44 56.11  350687 0.9868 144.0 16.5 120.1 323.0
1994 12 09 10:33  02 36 59.259   +13 46 32.22  350054 0.9868 144.0 16.5 120.6 323.0
1994 12 09 10:34  02 36 54.268   +13 48 08.67  349420 0.9868 144.0 16.5 121.0 323.0
1994 12 09 10:35  02 36 49.257   +13 49 45.47  348787 0.9868 144.0 16.5 121.5 323.0
1994 12 09 10:36  02 36 44.228   +13 51 22.61  348154 0.9868 143.9 16.5 121.9 323.0
1994 12 09 10:37  02 36 39.179   +13 53 00.10  347521 0.9868 143.9 16.5 122.3 323.0
1994 12 09 10:38  02 36 34.110   +13 54 37.94  346888 0.9868 143.9 16.5 122.8 323.0
1994 12 09 10:39  02 36 29.021   +13 56 16.13  346255 0.9868 143.9 16.5 123.2 323.0
1994 12 09 10:40  02 36 23.913   +13 57 54.68  345622 0.9868 143.9 16.5 123.7 322.9
1994 12 09 10:41  02 36 18.784   +13 59 33.57  344990 0.9867 143.9 16.5 124.1 322.9
1994 12 09 10:42  02 36 13.636   +14 01 12.83  344357 0.9867 143.9 16.5 124.6 322.9
1994 12 09 10:43  02 36 08.467   +14 02 52.44  343725 0.9867 143.9 16.5 125.1 322.9
1994 12 09 10:44  02 36 03.278   +14 04 32.41  343092 0.9867 143.9 16.5 125.5 322.9
1994 12 09 10:45  02 35 58.069   +14 06 12.75  342460 0.9867 143.8 16.5 126.0 322.9
1994 12 09 10:46  02 35 52.839   +14 07 53.45  341828 0.9867 143.8 16.5 126.5 322.9
1994 12 09 10:47  02 35 47.588   +14 09 34.52  341196 0.9867 143.8 16.5 126.9 322.9
1994 12 09 10:48  02 35 42.317   +14 11 15.95  340564 0.9867 143.8 16.5 127.4 322.9
1994 12 09 10:49  02 35 37.025   +14 12 57.75  339933 0.9867 143.8 16.4 127.9 322.9
1994 12 09 10:50  02 35 31.711   +14 14 39.93  339301 0.9867 143.8 16.4 128.3 322.9
1994 12 09 10:51  02 35 26.377   +14 16 22.48  338670 0.9867 143.8 16.4 128.8 322.9
1994 12 09 10:52  02 35 21.021   +14 18 05.40  338038 0.9867 143.8 16.4 129.3 322.9
1994 12 09 10:53  02 35 15.644   +14 19 48.70  337407 0.9867 143.8 16.4 129.8 322.9
1994 12 09 10:54  02 35 10.245   +14 21 32.38  336776 0.9867 143.7 16.4 130.3 322.9
1994 12 09 10:55  02 35 04.825   +14 23 16.45  336145 0.9867 143.7 16.4 130.8 322.9
1994 12 09 10:56  02 34 59.383   +14 25 00.89  335514 0.9867 143.7 16.4 131.3 322.9
1994 12 09 10:57  02 34 53.919   +14 26 45.72  334883 0.9867 143.7 16.4 131.8 322.9
1994 12 09 10:58  02 34 48.433   +14 28 30.94  334253 0.9867 143.7 16.4 132.3 322.9
1994 12 09 10:59  02 34 42.924   +14 30 16.55  333622 0.9867 143.7 16.4 132.8 322.8
1994 12 09 11:00  02 34 37.394   +14 32 02.56  332992 0.9867 143.7 16.4 133.3 322.8
1994 12 09 11:01  02 34 31.841   +14 33 48.95  332362 0.9867 143.7 16.4 133.8 322.8
1994 12 09 11:02  02 34 26.265   +14 35 35.74  331732 0.9867 143.6 16.4 134.3 322.8
1994 12 09 11:03  02 34 20.666   +14 37 22.93  331102 0.9867 143.6 16.4 134.8 322.8
1994 12 09 11:04  02 34 15.045   +14 39 10.52  330472 0.9867 143.6 16.4 135.3 322.8
1994 12 09 11:05  02 34 09.401   +14 40 58.51  329842 0.9867 143.6 16.4 135.8 322.8
1994 12 09 11:06  02 34 03.733   +14 42 46.91  329213 0.9867 143.6 16.4 136.3 322.8
1994 12 09 11:07  02 33 58.043   +14 44 35.71  328583 0.9866 143.6 16.4 136.9 322.8
1994 12 09 11:08  02 33 52.328   +14 46 24.93  327954 0.9866 143.6 16.4 137.4 322.8
1994 12 09 11:09  02 33 46.591   +14 48 14.55  327325 0.9866 143.6 16.4 137.9 322.8
1994 12 09 11:10  02 33 40.829   +14 50 04.59  326695 0.9866 143.5 16.4 138.4 322.8
1994 12 09 11:11  02 33 35.044   +14 51 55.04  326067 0.9866 143.5 16.4 139.0 322.8
1994 12 09 11:12  02 33 29.235   +14 53 45.91  325438 0.9866 143.5 16.4 139.5 322.8
1994 12 09 11:13  02 33 23.401   +14 55 37.20  324809 0.9866 143.5 16.4 140.1 322.8
1994 12 09 11:14  02 33 17.543   +14 57 28.91  324181 0.9866 143.5 16.4 140.6 322.8
1994 12 09 11:15  02 33 11.661   +14 59 21.05  323552 0.9866 143.5 16.3 141.1 322.7
1994 12 09 11:16  02 33 05.754   +15 01 13.61  322924 0.9866 143.5 16.3 141.7 322.7
1994 12 09 11:17  02 32 59.822   +15 03 06.60  322296 0.9866 143.4 16.3 142.2 322.7
1994 12 09 11:18  02 32 53.866   +15 05 00.03  321668 0.9866 143.4 16.3 142.8 322.7
1994 12 09 11:19  02 32 47.884   +15 06 53.89  321040 0.9866 143.4 16.3 143.4 322.7
1994 12 09 11:20  02 32 41.877   +15 08 48.18  320412 0.9866 143.4 16.3 143.9 322.7
1994 12 09 11:21  02 32 35.845   +15 10 42.91  319785 0.9866 143.4 16.3 144.5 322.7
1994 12 09 11:22  02 32 29.787   +15 12 38.09  319157 0.9866 143.4 16.3 145.1 322.7
1994 12 09 11:23  02 32 23.704   +15 14 33.71  318530 0.9866 143.4 16.3 145.6 322.7
1994 12 09 11:24  02 32 17.594   +15 16 29.77  317903 0.9866 143.3 16.3 146.2 322.7
1994 12 09 11:25  02 32 11.459   +15 18 26.28  317276 0.9866 143.3 16.3 146.8 322.7
1994 12 09 11:26  02 32 05.297   +15 20 23.24  316649 0.9866 143.3 16.3 147.4 322.7
1994 12 09 11:27  02 31 59.109   +15 22 20.66  316023 0.9866 143.3 16.3 147.9 322.7
1994 12 09 11:28  02 31 52.895   +15 24 18.53  315396 0.9866 143.3 16.3 148.5 322.7
1994 12 09 11:29  02 31 46.653   +15 26 16.86  314770 0.9866 143.3 16.3 149.1 322.7
1994 12 09 11:30  02 31 40.385   +15 28 15.65  314143 0.9866 143.3 16.3 149.7 322.6
1994 12 09 11:31  02 31 34.090   +15 30 14.91  313517 0.9866 143.2 16.3 150.3 322.6
1994 12 09 11:32  02 31 27.768   +15 32 14.63  312891 0.9866 143.2 16.3 150.9 322.6
1994 12 09 11:33  02 31 21.418   +15 34 14.82  312266 0.9866 143.2 16.3 151.5 322.6
1994 12 09 11:34  02 31 15.040   +15 36 15.48  311640 0.9865 143.2 16.3 152.1 322.6
1994 12 09 11:35  02 31 08.635   +15 38 16.61  311014 0.9865 143.2 16.3 152.8 322.6
1994 12 09 11:36  02 31 02.202   +15 40 18.22  310389 0.9865 143.2 16.3 153.4 322.6
1994 12 09 11:37  02 30 55.741   +15 42 20.31  309764 0.9865 143.2 16.3 154.0 322.6
1994 12 09 11:38  02 30 49.252   +15 44 22.88  309139 0.9865 143.1 16.3 154.6 322.6
1994 12 09 11:39  02 30 42.734   +15 46 25.94  308514 0.9865 143.1 16.3 155.2 322.6
1994 12 09 11:40  02 30 36.187   +15 48 29.48  307890 0.9865 143.1 16.3 155.9 322.6
1994 12 09 11:41  02 30 29.612   +15 50 33.52  307265 0.9865 143.1 16.2 156.5 322.6
1994 12 09 11:42  02 30 23.007   +15 52 38.04  306641 0.9865 143.1 16.2 157.1 322.6
1994 12 09 11:43  02 30 16.374   +15 54 43.06  306016 0.9865 143.1 16.2 157.8 322.6
1994 12 09 11:44  02 30 09.710   +15 56 48.58  305392 0.9865 143.0 16.2 158.4 322.5
1994 12 09 11:45  02 30 03.018   +15 58 54.60  304769 0.9865 143.0 16.2 159.1 322.5
1994 12 09 11:46  02 29 56.295   +16 01 01.13  304145 0.9865 143.0 16.2 159.7 322.5
1994 12 09 11:47  02 29 49.543   +16 03 08.16  303521 0.9865 143.0 16.2 160.4 322.5
1994 12 09 11:48  02 29 42.760   +16 05 15.70  302898 0.9865 143.0 16.2 161.0 322.5
1994 12 09 11:49  02 29 35.947   +16 07 23.75  302275 0.9865 143.0 16.2 161.7 322.5
1994 12 09 11:50  02 29 29.103   +16 09 32.32  301652 0.9865 142.9 16.2 162.4 322.5
1994 12 09 11:51  02 29 22.228   +16 11 41.41  301029 0.9865 142.9 16.2 163.1 322.5
1994 12 09 11:52  02 29 15.323   +16 13 51.02  300406 0.9865 142.9 16.2 163.7 322.5
1994 12 09 11:53  02 29 08.386   +16 16 01.15  299784 0.9865 142.9 16.2 164.4 322.5
1994 12 09 11:54  02 29 01.418   +16 18 11.81  299161 0.9865 142.9 16.2 165.1 322.5
1994 12 09 11:55  02 28 54.418   +16 20 23.00  298539 0.9865 142.9 16.2 165.8 322.5
1994 12 09 11:56  02 28 47.386   +16 22 34.73  297917 0.9865 142.8 16.2 166.5 322.5
1994 12 09 11:57  02 28 40.322   +16 24 46.99  297295 0.9865 142.8 16.2 167.2 322.4
1994 12 09 11:58  02 28 33.226   +16 26 59.79  296674 0.9865 142.8 16.2 167.9 322.4
1994 12 09 11:59  02 28 26.097   +16 29 13.13  296052 0.9865 142.8 16.2 168.6 322.4
1994 12 09 12:00  02 28 18.936   +16 31 27.02  295431 0.9864 142.8 16.2 169.3 322.4
1994 12 09 12:01  02 28 11.742   +16 33 41.45  294810 0.9864 142.8 16.2 170.0 322.4
1994 12 09 12:02  02 28 04.514   +16 35 56.44  294189 0.9864 142.7 16.2 170.7 322.4
1994 12 09 12:03  02 27 57.253   +16 38 11.99  293568 0.9864 142.7 16.2 171.4 322.4
1994 12 09 12:04  02 27 49.959   +16 40 28.09  292948 0.9864 142.7 16.2 172.2 322.4
1994 12 09 12:05  02 27 42.630   +16 42 44.75  292327 0.9864 142.7 16.2 172.9 322.4
1994 12 09 12:06  02 27 35.268   +16 45 01.98  291707 0.9864 142.7 16.1 173.6 322.4
1994 12 09 12:07  02 27 27.871   +16 47 19.78  291087 0.9864 142.6 16.1 174.4 322.4
1994 12 09 12:08  02 27 20.439   +16 49 38.15  290468 0.9864 142.6 16.1 175.1 322.3
1994 12 09 12:09  02 27 12.973   +16 51 57.09  289848 0.9864 142.6 16.1 175.9 322.3
1994 12 09 12:10  02 27 05.472   +16 54 16.61  289229 0.9864 142.6 16.1 176.6 322.3
1994 12 09 12:11  02 26 57.935   +16 56 36.72  288609 0.9864 142.6 16.1 177.4 322.3
1994 12 09 12:12  02 26 50.363   +16 58 57.40  287990 0.9864 142.6 16.1 178.1 322.3
1994 12 09 12:13  02 26 42.755   +17 01 18.68  287372 0.9864 142.5 16.1 178.9 322.3
1994 12 09 12:14  02 26 35.111   +17 03 40.55  286753 0.9864 142.5 16.1 179.7 322.3
1994 12 09 12:15  02 26 27.431   +17 06 03.01  286135 0.9864 142.5 16.1 180.5 322.3
1994 12 09 12:16  02 26 19.714   +17 08 26.08  285516 0.9864 142.5 16.1 181.2 322.3
1994 12 09 12:17  02 26 11.961   +17 10 49.74  284898 0.9864 142.5 16.1 182.0 322.3
1994 12 09 12:18  02 26 04.170   +17 13 14.01  284281 0.9864 142.4 16.1 182.8 322.3
1994 12 09 12:19  02 25 56.342   +17 15 38.89  283663 0.9864 142.4 16.1 183.6 322.2
1994 12 09 12:20  02 25 48.476   +17 18 04.38  283046 0.9864 142.4 16.1 184.4 322.2
1994 12 09 12:21  02 25 40.573   +17 20 30.49  282429 0.9864 142.4 16.1 185.2 322.2
1994 12 09 12:22  02 25 32.631   +17 22 57.23  281812 0.9864 142.4 16.1 186.0 322.2
1994 12 09 12:23  02 25 24.651   +17 25 24.58  281195 0.9864 142.3 16.1 186.9 322.2
1994 12 09 12:24  02 25 16.632   +17 27 52.56  280578 0.9864 142.3 16.1 187.7 322.2
1994 12 09 12:25  02 25 08.575   +17 30 21.18  279962 0.9864 142.3 16.1 188.5 322.2
1994 12 09 12:26  02 25 00.478   +17 32 50.42  279346 0.9864 142.3 16.1 189.3 322.2
1994 12 09 12:27  02 24 52.341   +17 35 20.31  278730 0.9863 142.2 16.1 190.2 322.2
1994 12 09 12:28  02 24 44.165   +17 37 50.84  278114 0.9863 142.2 16.1 191.0 322.2
1994 12 09 12:29  02 24 35.949   +17 40 22.02  277499 0.9863 142.2 16.1 191.9 322.1
1994 12 09 12:30  02 24 27.692   +17 42 53.85  276884 0.9863 142.2 16.0 192.7 322.1
1994 12 09 12:31  02 24 19.395   +17 45 26.33  276269 0.9863 142.2 16.0 193.6 322.1
1994 12 09 12:32  02 24 11.057   +17 47 59.47  275654 0.9863 142.1 16.0 194.5 322.1
1994 12 09 12:33  02 24 02.677   +17 50 33.27  275039 0.9863 142.1 16.0 195.3 322.1
1994 12 09 12:34  02 23 54.256   +17 53 07.74  274425 0.9863 142.1 16.0 196.2 322.1
1994 12 09 12:35  02 23 45.793   +17 55 42.88  273811 0.9863 142.1 16.0 197.1 322.1
1994 12 09 12:36  02 23 37.287   +17 58 18.69  273197 0.9863 142.0 16.0 198.0 322.1
1994 12 09 12:37  02 23 28.740   +18 00 55.18  272583 0.9863 142.0 16.0 198.9 322.1
1994 12 09 12:38  02 23 20.149   +18 03 32.36  271970 0.9863 142.0 16.0 199.8 322.0
1994 12 09 12:39  02 23 11.515   +18 06 10.22  271357 0.9863 142.0 16.0 200.7 322.0
1994 12 09 12:40  02 23 02.838   +18 08 48.77  270744 0.9863 142.0 16.0 201.6 322.0
1994 12 09 12:41  02 22 54.117   +18 11 28.01  270131 0.9863 141.9 16.0 202.5 322.0
1994 12 09 12:42  02 22 45.352   +18 14 07.96  269519 0.9863 141.9 16.0 203.4 322.0
1994 12 09 12:43  02 22 36.543   +18 16 48.61  268906 0.9863 141.9 16.0 204.3 322.0
1994 12 09 12:44  02 22 27.689   +18 19 29.96  268295 0.9863 141.9 16.0 205.3 322.0
1994 12 09 12:45  02 22 18.789   +18 22 12.03  267683 0.9863 141.8 16.0 206.2 322.0
1994 12 09 12:46  02 22 09.845   +18 24 54.82  267071 0.9863 141.8 16.0 207.1 322.0
1994 12 09 12:47  02 22 00.854   +18 27 38.32  266460 0.9863 141.8 16.0 208.1 321.9
1994 12 09 12:48  02 21 51.817   +18 30 22.55  265849 0.9863 141.8 16.0 209.1 321.9
1994 12 09 12:49  02 21 42.734   +18 33 07.51  265238 0.9863 141.7 16.0 210.0 321.9
1994 12 09 12:50  02 21 33.604   +18 35 53.20  264628 0.9863 141.7 16.0 211.0 321.9
1994 12 09 12:51  02 21 24.427   +18 38 39.63  264018 0.9863 141.7 16.0 212.0 321.9
1994 12 09 12:52  02 21 15.202   +18 41 26.81  263408 0.9863 141.7 16.0 213.0 321.9
1994 12 09 12:53  02 21 05.930   +18 44 14.73  262798 0.9862 141.6 15.9 213.9 321.9
1994 12 09 12:54  02 20 56.609   +18 47 03.40  262189 0.9862 141.6 15.9 214.9 321.9
1994 12 09 12:55  02 20 47.239   +18 49 52.83  261580 0.9862 141.6 15.9 215.9 321.8
1994 12 09 12:56  02 20 37.821   +18 52 43.03  260971 0.9862 141.6 15.9 216.9 321.8
1994 12 09 12:57  02 20 28.353   +18 55 33.98  260362 0.9862 141.5 15.9 218.0 321.8
1994 12 09 12:58  02 20 18.835   +18 58 25.71  259754 0.9862 141.5 15.9 219.0 321.8
1994 12 09 12:59  02 20 09.267   +19 01 18.22  259146 0.9862 141.5 15.9 220.0 321.8
1994 12 09 13:00  02 19 59.649   +19 04 11.50  258538 0.9862 141.5 15.9 221.0 321.8
1994 12 09 13:01  02 19 49.980   +19 07 05.57  257930 0.9862 141.4 15.9 222.1 321.8
1994 12 09 13:02  02 19 40.259   +19 10 00.43  257323 0.9862 141.4 15.9 223.1 321.8
1994 12 09 13:03  02 19 30.486   +19 12 56.08  256716 0.9862 141.4 15.9 224.2 321.7
1994 12 09 13:04  02 19 20.662   +19 15 52.54  256109 0.9862 141.3 15.9 225.3 321.7
1994 12 09 13:05  02 19 10.784   +19 18 49.80  255503 0.9862 141.3 15.9 226.3 321.7
1994 12 09 13:06  02 19 00.854   +19 21 47.86  254897 0.9862 141.3 15.9 227.4 321.7
1994 12 09 13:07  02 18 50.871   +19 24 46.75  254291 0.9862 141.3 15.9 228.5 321.7
1994 12 09 13:08  02 18 40.833   +19 27 46.45  253685 0.9862 141.2 15.9 229.6 321.7
1994 12 09 13:09  02 18 30.742   +19 30 46.98  253080 0.9862 141.2 15.9 230.7 321.7
1994 12 09 13:10  02 18 20.595   +19 33 48.34  252475 0.9862 141.2 15.9 231.8 321.6
1994 12 09 13:11  02 18 10.394   +19 36 50.53  251870 0.9862 141.1 15.9 232.9 321.6
1994 12 09 13:12  02 18 00.137   +19 39 53.56  251266 0.9862 141.1 15.9 234.0 321.6
1994 12 09 13:13  02 17 49.824   +19 42 57.44  250662 0.9862 141.1 15.9 235.2 321.6
1994 12 09 13:14  02 17 39.454   +19 46 02.17  250058 0.9862 141.1 15.9 236.3 321.6
1994 12 09 13:15  02 17 29.028   +19 49 07.76  249455 0.9862 141.0 15.9 237.4 321.6
1994 12 09 13:16  02 17 18.544   +19 52 14.21  248852 0.9862 141.0 15.8 238.6 321.6
1994 12 09 13:17  02 17 08.002   +19 55 21.52  248249 0.9862 141.0 15.8 239.8 321.5
1994 12 09 13:18  02 16 57.402   +19 58 29.71  247646 0.9862 140.9 15.8 240.9 321.5
1994 12 09 13:19  02 16 46.744   +20 01 38.78  247044 0.9862 140.9 15.8 242.1 321.5
1994 12 09 13:20  02 16 36.026   +20 04 48.73  246442 0.9861 140.9 15.8 243.3 321.5
1994 12 09 13:21  02 16 25.248   +20 07 59.57  245840 0.9861 140.8 15.8 244.5 321.5
1994 12 09 13:22  02 16 14.410   +20 11 11.30  245239 0.9861 140.8 15.8 245.7 321.5
1994 12 09 13:23  02 16 03.511   +20 14 23.94  244638 0.9861 140.8 15.8 246.9 321.5
1994 12 09 13:24  02 15 52.552   +20 17 37.48  244038 0.9861 140.8 15.8 248.1 321.4
1994 12 09 13:25  02 15 41.530   +20 20 51.93  243437 0.9861 140.7 15.8 249.3 321.4
1994 12 09 13:26  02 15 30.446   +20 24 07.30  242837 0.9861 140.7 15.8 250.6 321.4
1994 12 09 13:27  02 15 19.299   +20 27 23.59  242238 0.9861 140.7 15.8 251.8 321.4
1994 12 09 13:28  02 15 08.090   +20 30 40.81  241638 0.9861 140.6 15.8 253.0 321.4
1994 12 09 13:29  02 14 56.816   +20 33 58.97  241040 0.9861 140.6 15.8 254.3 321.4
1994 12 09 13:30  02 14 45.478   +20 37 18.07  240441 0.9861 140.6 15.8 255.6 321.3
1994 12 09 13:31  02 14 34.075   +20 40 38.11  239843 0.9861 140.5 15.8 256.8 321.3
1994 12 09 13:32  02 14 22.606   +20 43 59.11  239245 0.9861 140.5 15.8 258.1 321.3
1994 12 09 13:33  02 14 11.072   +20 47 21.06  238647 0.9861 140.5 15.8 259.4 321.3
1994 12 09 13:34  02 13 59.471   +20 50 43.99  238050 0.9861 140.4 15.8 260.7 321.3
1994 12 09 13:35  02 13 47.803   +20 54 07.88  237453 0.9861 140.4 15.8 262.0 321.3
1994 12 09 13:36  02 13 36.068   +20 57 32.75  236857 0.9861 140.4 15.8 263.4 321.2
1994 12 09 13:37  02 13 24.264   +21 00 58.60  236260 0.9861 140.3 15.8 264.7 321.2
1994 12 09 13:38  02 13 12.391   +21 04 25.45  235665 0.9861 140.3 15.7 266.0 321.2
1994 12 09 13:39  02 13 00.449   +21 07 53.29  235069 0.9861 140.2 15.7 267.4 321.2
1994 12 09 13:40  02 12 48.437   +21 11 22.13  234474 0.9861 140.2 15.7 268.7 321.2
1994 12 09 13:41  02 12 36.354   +21 14 51.98  233880 0.9861 140.2 15.7 270.1 321.1
1994 12 09 13:42  02 12 24.200   +21 18 22.85  233285 0.9861 140.1 15.7 271.5 321.1
1994 12 09 13:43  02 12 11.974   +21 21 54.73  232691 0.9861 140.1 15.7 272.9 321.1
1994 12 09 13:44  02 11 59.676   +21 25 27.65  232098 0.9861 140.1 15.7 274.3 321.1
1994 12 09 13:45  02 11 47.304   +21 29 01.60  231505 0.9861 140.0 15.7 275.7 321.1
1994 12 09 13:46  02 11 34.859   +21 32 36.59  230912 0.9860 140.0 15.7 277.1 321.1
1994 12 09 13:47  02 11 22.340   +21 36 12.63  230320 0.9860 140.0 15.7 278.5 321.0
1994 12 09 13:48  02 11 09.745   +21 39 49.73  229728 0.9860 139.9 15.7 280.0 321.0
1994 12 09 13:49  02 10 57.075   +21 43 27.88  229136 0.9860 139.9 15.7 281.4 321.0
1994 12 09 13:50  02 10 44.329   +21 47 07.11  228545 0.9860 139.8 15.7 282.9 321.0
1994 12 09 13:51  02 10 31.505   +21 50 47.41  227954 0.9860 139.8 15.7 284.3 321.0
1994 12 09 13:52  02 10 18.604   +21 54 28.79  227364 0.9860 139.8 15.7 285.8 320.9
1994 12 09 13:53  02 10 05.625   +21 58 11.26  226774 0.9860 139.7 15.7 287.3 320.9
1994 12 09 13:54  02 09 52.566   +22 01 54.83  226184 0.9860 139.7 15.7 288.8 320.9
1994 12 09 13:55  02 09 39.428   +22 05 39.50  225595 0.9860 139.6 15.7 290.3 320.9
1994 12 09 13:56  02 09 26.209   +22 09 25.27  225006 0.9860 139.6 15.7 291.8 320.9
1994 12 09 13:57  02 09 12.909   +22 13 12.17  224418 0.9860 139.6 15.7 293.4 320.8
1994 12 09 13:58  02 08 59.526   +22 17 00.19  223830 0.9860 139.5 15.7 294.9 320.8
1994 12 09 13:59  02 08 46.062   +22 20 49.34  223243 0.9860 139.5 15.7 296.5 320.8
1994 12 09 14:00  02 08 32.514   +22 24 39.63  222656 0.9860 139.4 15.6 298.0 320.8
1994 12 09 14:01  02 08 18.881   +22 28 31.07  222069 0.9860 139.4 15.6 299.6 320.7
1994 12 09 14:02  02 08 05.164   +22 32 23.66  221483 0.9860 139.4 15.6 301.2 320.7
1994 12 09 14:03  02 07 51.361   +22 36 17.41  220897 0.9860 139.3 15.6 302.8 320.7
1994 12 09 14:04  02 07 37.471   +22 40 12.32  220312 0.9860 139.3 15.6 304.4 320.7
1994 12 09 14:05  02 07 23.494   +22 44 08.42  219727 0.9860 139.2 15.6 306.0 320.7
1994 12 09 14:06  02 07 09.430   +22 48 05.69  219143 0.9860 139.2 15.6 307.7 320.6
1994 12 09 14:07  02 06 55.276   +22 52 04.16  218559 0.9860 139.1 15.6 309.3 320.6
1994 12 09 14:08  02 06 41.032   +22 56 03.82  217975 0.9860 139.1 15.6 311.0 320.6
1994 12 09 14:09  02 06 26.698   +23 00 04.69  217393 0.9860 139.0 15.6 312.6 320.6
1994 12 09 14:10  02 06 12.273   +23 04 06.77  216810 0.9860 139.0 15.6 314.3 320.5
1994 12 09 14:11  02 05 57.755   +23 08 10.08  216228 0.9860 139.0 15.6 316.0 320.5
1994 12 09 14:12  02 05 43.144   +23 12 14.61  215646 0.9860 138.9 15.6 317.7 320.5
1994 12 09 14:13  02 05 28.439   +23 16 20.38  215065 0.9859 138.9 15.6 319.4 320.5
1994 12 09 14:14  02 05 13.640   +23 20 27.40  214485 0.9859 138.8 15.6 321.2 320.4
1994 12 09 14:15  02 04 58.744   +23 24 35.66  213905 0.9859 138.8 15.6 322.9 320.4
1994 12 09 14:16  02 04 43.752   +23 28 45.19  213325 0.9859 138.7 15.6 324.7 320.4
1994 12 09 14:17  02 04 28.663   +23 32 55.99  212746 0.9859 138.7 15.6 326.4 320.4
1994 12 09 14:18  02 04 13.475   +23 37 08.06  212167 0.9859 138.6 15.6 328.2 320.3
1994 12 09 14:19  02 03 58.187   +23 41 21.42  211589 0.9859 138.6 15.6 330.0 320.3
1994 12 09 14:20  02 03 42.800   +23 45 36.07  211012 0.9859 138.5 15.6 331.8 320.3
1994 12 09 14:21  02 03 27.311   +23 49 52.02  210435 0.9859 138.5 15.6 333.6 320.3
1994 12 09 14:22  02 03 11.719   +23 54 09.28  209858 0.9859 138.4 15.5 335.5 320.2
1994 12 09 14:23  02 02 56.025   +23 58 27.86  209282 0.9859 138.4 15.5 337.3 320.2
1994 12 09 14:24  02 02 40.226   +24 02 47.76  208707 0.9859 138.3 15.5 339.2 320.2
1994 12 09 14:25  02 02 24.322   +24 07 09.00  208132 0.9859 138.3 15.5 341.1 320.2
1994 12 09 14:26  02 02 08.311   +24 11 31.58  207557 0.9859 138.2 15.5 343.0 320.1
1994 12 09 14:27  02 01 52.194   +24 15 55.51  206983 0.9859 138.2 15.5 344.9 320.1
1994 12 09 14:28  02 01 35.968   +24 20 20.81  206410 0.9859 138.1 15.5 346.8 320.1
1994 12 09 14:29  02 01 19.632   +24 24 47.47  205837 0.9859 138.1 15.5 348.7 320.1
1994 12 09 14:30  02 01 03.186   +24 29 15.50  205265 0.9859 138.0 15.5 350.7 320.0
1994 12 09 14:31  02 00 46.629   +24 33 44.93  204693 0.9859 138.0 15.5 352.6 320.0
1994 12 09 14:32  02 00 29.959   +24 38 15.74  204122 0.9859 137.9 15.5 354.6 320.0
1994 12 09 14:33  02 00 13.175   +24 42 47.96  203552 0.9859 137.9 15.5 356.6 319.9
1994 12 09 14:34  01 59 56.276   +24 47 21.60  202982 0.9859 137.8 15.5 358.6 319.9
1994 12 09 14:35  01 59 39.261   +24 51 56.65  202412 0.9859 137.8 15.5 360.6 319.9
1994 12 09 14:36  01 59 22.130   +24 56 33.13  201843 0.9859 137.7 15.5 362.7 319.8
1994 12 09 14:37  01 59 04.879   +25 01 11.05  201275 0.9859 137.6 15.5 364.7 319.8
1994 12 09 14:38  01 58 47.510   +25 05 50.42  200708 0.9859 137.6 15.5 366.8 319.8
1994 12 09 14:39  01 58 30.019   +25 10 31.24  200140 0.9858 137.5 15.5 368.9 319.8
1994 12 09 14:40  01 58 12.407   +25 15 13.53  199574 0.9858 137.5 15.5 370.9 319.7
1994 12 09 14:41  01 57 54.671   +25 19 57.29  199008 0.9858 137.4 15.5 373.1 319.7
1994 12 09 14:42  01 57 36.811   +25 24 42.53  198443 0.9858 137.4 15.5 375.2 319.7
1994 12 09 14:43  01 57 18.825   +25 29 29.27  197878 0.9858 137.3 15.5 377.3 319.6
1994 12 09 14:44  01 57 00.713   +25 34 17.51  197314 0.9858 137.2 15.4 379.5 319.6
1994 12 09 14:45  01 56 42.472   +25 39 07.26  196751 0.9858 137.2 15.4 381.7 319.6
1994 12 09 14:46  01 56 24.102   +25 43 58.53  196188 0.9858 137.1 15.4 383.9 319.5
1994 12 09 14:47  01 56 05.601   +25 48 51.33  195626 0.9858 137.1 15.4 386.1 319.5
1994 12 09 14:48  01 55 46.967   +25 53 45.67  195065 0.9858 137.0 15.4 388.3 319.5
1994 12 09 14:49  01 55 28.200   +25 58 41.55  194504 0.9858 136.9 15.4 390.5 319.4
1994 12 09 14:50  01 55 09.298   +26 03 39.00  193944 0.9858 136.9 15.4 392.8 319.4
1994 12 09 14:51  01 54 50.260   +26 08 38.00  193385 0.9858 136.8 15.4 395.1 319.4
1994 12 09 14:52  01 54 31.084   +26 13 38.59  192826 0.9858 136.7 15.4 397.4 319.3
1994 12 09 14:53  01 54 11.769   +26 18 40.76  192268 0.9858 136.7 15.4 399.7 319.3
1994 12 09 14:54  01 53 52.313   +26 23 44.52  191711 0.9858 136.6 15.4 402.0 319.3
1994 12 09 14:55  01 53 32.715   +26 28 49.89  191154 0.9858 136.6 15.4 404.3 319.2
1994 12 09 14:56  01 53 12.974   +26 33 56.87  190598 0.9858 136.5 15.4 406.7 319.2
1994 12 09 14:57  01 52 53.087   +26 39 05.48  190042 0.9858 136.4 15.4 409.1 319.1
1994 12 09 14:58  01 52 33.054   +26 44 15.72  189488 0.9858 136.4 15.4 411.5 319.1
1994 12 09 14:59  01 52 12.873   +26 49 27.60  188934 0.9858 136.3 15.4 413.9 319.1
1994 12 09 15:00  01 51 52.542   +26 54 41.13  188381 0.9858 136.2 15.4 416.3 319.0
1994 12 09 15:01  01 51 32.059   +26 59 56.33  187828 0.9858 136.2 15.4 418.8 319.0
1994 12 09 15:02  01 51 11.424   +27 05 13.19  187277 0.9858 136.1 15.4 421.3 319.0
1994 12 09 15:03  01 50 50.633   +27 10 31.74  186726 0.9858 136.0 15.4 423.8 318.9
1994 12 09 15:04  01 50 29.687   +27 15 51.98  186176 0.9858 136.0 15.4 426.3 318.9
1994 12 09 15:05  01 50 08.583   +27 21 13.91  185626 0.9857 135.9 15.4 428.8 318.8
1994 12 09 15:06  01 49 47.319   +27 26 37.56  185077 0.9857 135.8 15.3 431.3 318.8
1994 12 09 15:07  01 49 25.894   +27 32 02.93  184529 0.9857 135.7 15.3 433.9 318.8
1994 12 09 15:08  01 49 04.306   +27 37 30.02  183982 0.9857 135.7 15.3 436.5 318.7
1994 12 09 15:09  01 48 42.552   +27 42 58.86  183436 0.9857 135.6 15.3 439.1 318.7
1994 12 09 15:10  01 48 20.632   +27 48 29.44  182890 0.9857 135.5 15.3 441.7 318.6
1994 12 09 15:11  01 47 58.544   +27 54 01.78  182345 0.9857 135.5 15.3 444.4 318.6
1994 12 09 15:12  01 47 36.285   +27 59 35.89  181801 0.9857 135.4 15.3 447.0 318.5
1994 12 09 15:13  01 47 13.854   +28 05 11.78  181258 0.9857 135.3 15.3 449.7 318.5
1994 12 09 15:14  01 46 51.249   +28 10 49.45  180716 0.9857 135.2 15.3 452.4 318.4
1994 12 09 15:15  01 46 28.468   +28 16 28.92  180174 0.9857 135.2 15.3 455.1 318.4
1994 12 09 15:16  01 46 05.509   +28 22 10.20  179634 0.9857 135.1 15.3 457.9 318.4
1994 12 09 15:17  01 45 42.370   +28 27 53.29  179094 0.9857 135.0 15.3 460.6 318.3
1994 12 09 15:18  01 45 19.049   +28 33 38.21  178555 0.9857 134.9 15.3 463.4 318.3
1994 12 09 15:19  01 44 55.544   +28 39 24.96  178017 0.9857 134.8 15.3 466.2 318.2
1994 12 09 15:20  01 44 31.853   +28 45 13.56  177479 0.9857 134.8 15.3 469.1 318.2
1994 12 09 15:21  01 44 07.974   +28 51 04.01  176943 0.9857 134.7 15.3 471.9 318.1
1994 12 09 15:22  01 43 43.905   +28 56 56.32  176407 0.9857 134.6 15.3 474.8 318.1
1994 12 09 15:23  01 43 19.643   +29 02 50.51  175873 0.9857 134.5 15.3 477.7 318.0
1994 12 09 15:24  01 42 55.187   +29 08 46.58  175339 0.9857 134.4 15.3 480.6 318.0
1994 12 09 15:25  01 42 30.534   +29 14 44.55  174806 0.9857 134.4 15.3 483.5 317.9
1994 12 09 15:26  01 42 05.682   +29 20 44.41  174274 0.9857 134.3 15.3 486.5 317.9
1994 12 09 15:27  01 41 40.628   +29 26 46.19  173743 0.9857 134.2 15.3 489.4 317.8
1994 12 09 15:28  01 41 15.371   +29 32 49.88  173213 0.9857 134.1 15.3 492.4 317.8
1994 12 09 15:29  01 40 49.908   +29 38 55.50  172684 0.9857 134.0 15.2 495.5 317.7
1994 12 09 15:30  01 40 24.237   +29 45 03.06  172156 0.9857 133.9 15.2 498.5 317.7
1994 12 09 15:31  01 39 58.355   +29 51 12.57  171629 0.9857 133.8 15.2 501.6 317.6
1994 12 09 15:32  01 39 32.260   +29 57 24.04  171102 0.9856 133.8 15.2 504.7 317.6
1994 12 09 15:33  01 39 05.950   +30 03 37.47  170577 0.9856 133.7 15.2 507.8 317.5
1994 12 09 15:34  01 38 39.421   +30 09 52.87  170053 0.9856 133.6 15.2 510.9 317.5
1994 12 09 15:35  01 38 12.672   +30 16 10.26  169529 0.9856 133.5 15.2 514.1 317.4
1994 12 09 15:36  01 37 45.699   +30 22 29.63  169007 0.9856 133.4 15.2 517.3 317.3
1994 12 09 15:37  01 37 18.501   +30 28 51.01  168486 0.9856 133.3 15.2 520.5 317.3
1994 12 09 15:38  01 36 51.074   +30 35 14.39  167965 0.9856 133.2 15.2 523.7 317.2
1994 12 09 15:39  01 36 23.416   +30 41 39.79  167446 0.9856 133.1 15.2 526.9 317.2
1994 12 09 15:40  01 35 55.524   +30 48 07.22  166928 0.9856 133.0 15.2 530.2 317.1
1994 12 09 15:41  01 35 27.396   +30 54 36.67  166411 0.9856 132.9 15.2 533.5 317.0
1994 12 09 15:42  01 34 59.028   +31 01 08.17  165895 0.9856 132.8 15.2 536.8 317.0
1994 12 09 15:43  01 34 30.418   +31 07 41.72  165380 0.9856 132.7 15.2 540.2 316.9
1994 12 09 15:44  01 34 01.563   +31 14 17.32  164866 0.9856 132.6 15.2 543.6 316.9
1994 12 09 15:45  01 33 32.459   +31 20 54.99  164353 0.9856 132.6 15.2 547.0 316.8
1994 12 09 15:46  01 33 03.105   +31 27 34.73  163841 0.9856 132.5 15.2 550.4 316.7
1994 12 09 15:47  01 32 33.496   +31 34 16.55  163330 0.9856 132.4 15.2 553.8 316.7
1994 12 09 15:48  01 32 03.631   +31 41 00.45  162821 0.9856 132.3 15.2 557.3 316.6
1994 12 09 15:49  01 31 33.505   +31 47 46.45  162313 0.9856 132.2 15.2 560.8 316.5
1994 12 09 15:50  01 31 03.115   +31 54 34.54  161805 0.9856 132.0 15.2 564.3 316.5
1994 12 09 15:51  01 30 32.460   +32 01 24.74  161299 0.9856 131.9 15.2 567.9 316.4
1994 12 09 15:52  01 30 01.534   +32 08 17.06  160794 0.9856 131.8 15.2 571.4 316.3
1994 12 09 15:53  01 29 30.335   +32 15 11.49  160291 0.9856 131.7 15.1 575.0 316.3
1994 12 09 15:54  01 28 58.860   +32 22 08.05  159788 0.9856 131.6 15.1 578.7 316.2
1994 12 09 15:55  01 28 27.105   +32 29 06.74  159287 0.9856 131.5 15.1 582.3 316.1
1994 12 09 15:56  01 27 55.067   +32 36 07.56  158787 0.9856 131.4 15.1 586.0 316.1
1994 12 09 15:57  01 27 22.743   +32 43 10.53  158288 0.9856 131.3 15.1 589.7 316.0
1994 12 09 15:58  01 26 50.128   +32 50 15.64  157790 0.9855 131.2 15.1 593.4 315.9
1994 12 09 15:59  01 26 17.219   +32 57 22.90  157294 0.9855 131.1 15.1 597.2 315.8
1994 12 09 16:00  01 25 44.013   +33 04 32.32  156798 0.9855 131.0 15.1 600.9 315.8
1994 12 09 16:01  01 25 10.506   +33 11 43.90  156305 0.9855 130.9 15.1 604.7 315.7
1994 12 09 16:02  01 24 36.694   +33 18 57.64  155812 0.9855 130.8 15.1 608.6 315.6
1994 12 09 16:03  01 24 02.573   +33 26 13.56  155321 0.9855 130.6 15.1 612.4 315.5
1994 12 09 16:04  01 23 28.140   +33 33 31.64  154831 0.9855 130.5 15.1 616.3 315.4
1994 12 09 16:05  01 22 53.390   +33 40 51.90  154342 0.9855 130.4 15.1 620.2 315.4
1994 12 09 16:06  01 22 18.320   +33 48 14.33  153855 0.9855 130.3 15.1 624.2 315.3
1994 12 09 16:07  01 21 42.926   +33 55 38.95  153369 0.9855 130.2 15.1 628.1 315.2
1994 12 09 16:08  01 21 07.203   +34 03 05.74  152884 0.9855 130.1 15.1 632.1 315.1
1994 12 09 16:09  01 20 31.148   +34 10 34.72  152401 0.9855 129.9 15.1 636.1 315.0
1994 12 09 16:10  01 19 54.756   +34 18 05.89  151919 0.9855 129.8 15.1 640.2 314.9
1994 12 09 16:11  01 19 18.024   +34 25 39.24  151439 0.9855 129.7 15.1 644.2 314.9
1994 12 09 16:12  01 18 40.945   +34 33 14.78  150959 0.9855 129.6 15.1 648.3 314.8
1994 12 09 16:13  01 18 03.518   +34 40 52.50  150482 0.9855 129.5 15.1 652.4 314.7
1994 12 09 16:14  01 17 25.736   +34 48 32.41  150006 0.9855 129.3 15.1 656.6 314.6
1994 12 09 16:15  01 16 47.595   +34 56 14.50  149531 0.9855 129.2 15.1 660.8 314.5
1994 12 09 16:16  01 16 09.091   +35 03 58.78  149058 0.9855 129.1 15.1 665.0 314.4
1994 12 09 16:17  01 15 30.220   +35 11 45.24  148586 0.9855 129.0 15.1 669.2 314.3
1994 12 09 16:18  01 14 50.975   +35 19 33.88  148116 0.9855 128.8 15.1 673.5 314.2
1994 12 09 16:19  01 14 11.354   +35 27 24.70  147647 0.9855 128.7 15.1 677.7 314.1
1994 12 09 16:20  01 13 31.350   +35 35 17.69  147180 0.9855 128.6 15.1 682.0 314.0
1994 12 09 16:21  01 12 50.960   +35 43 12.86  146714 0.9855 128.4 15.1 686.4 313.9
1994 12 09 16:22  01 12 10.177   +35 51 10.19  146250 0.9855 128.3 15.0 690.7 313.8
1994 12 09 16:23  01 11 28.998   +35 59 09.68  145787 0.9855 128.2 15.0 695.1 313.7
1994 12 09 16:24  01 10 47.416   +36 07 11.33  145326 0.9855 128.0 15.0 699.5 313.6
1994 12 09 16:25  01 10 05.427   +36 15 15.12  144867 0.9854 127.9 15.0 704.0 313.5
1994 12 09 16:26  01 09 23.025   +36 23 21.06  144409 0.9854 127.8 15.0 708.5 313.4
1994 12 09 16:27  01 08 40.205   +36 31 29.14  143953 0.9854 127.6 15.0 713.0 313.3
1994 12 09 16:28  01 07 56.962   +36 39 39.34  143499 0.9854 127.5 15.0 717.5 313.2
1994 12 09 16:29  01 07 13.290   +36 47 51.66  143046 0.9854 127.3 15.0 722.0 313.1
1994 12 09 16:30  01 06 29.184   +36 56 06.10  142595 0.9854 127.2 15.0 726.6 313.0
1994 12 09 16:31  01 05 44.638   +37 04 22.63  142145 0.9854 127.0 15.0 731.2 312.9
1994 12 09 16:32  01 04 59.646   +37 12 41.25  141698 0.9854 126.9 15.0 735.8 312.8
1994 12 09 16:33  01 04 14.202   +37 21 01.94  141252 0.9854 126.8 15.0 740.5 312.7
1994 12 09 16:34  01 03 28.301   +37 29 24.70  140808 0.9854 126.6 15.0 745.2 312.5
1994 12 09 16:35  01 02 41.937   +37 37 49.51  140365 0.9854 126.5 15.0 749.9 312.4
1994 12 09 16:36  01 01 55.103   +37 46 16.36  139925 0.9854 126.3 15.0 754.6 312.3
1994 12 09 16:37  01 01 07.794   +37 54 45.23  139486 0.9854 126.2 15.0 759.4 312.2
1994 12 09 16:38  01 00 20.003   +38 03 16.11  139049 0.9854 126.0 15.0 764.1 312.1
1994 12 09 16:39  00 59 31.724   +38 11 48.97  138613 0.9854 125.9 15.0 768.9 311.9
1994 12 09 16:40  00 58 42.951   +38 20 23.81  138180 0.9854 125.7 15.0 773.8 311.8
1994 12 09 16:41  00 57 53.677   +38 29 00.59  137749 0.9854 125.6 15.0 778.6 311.7
1994 12 09 16:42  00 57 03.896   +38 37 39.31  137319 0.9854 125.4 15.0 783.5 311.5
1994 12 09 16:43  00 56 13.601   +38 46 19.95  136891 0.9854 125.2 15.0 788.4 311.4
1994 12 09 16:44  00 55 22.785   +38 55 02.47  136466 0.9854 125.1 15.0 793.3 311.3
1994 12 09 16:45  00 54 31.442   +39 03 46.86  136042 0.9854 124.9 15.0 798.3 311.2
1994 12 09 16:46  00 53 39.565   +39 12 33.10  135620 0.9854 124.8 15.0 803.3 311.0
1994 12 09 16:47  00 52 47.147   +39 21 21.15  135200 0.9854 124.6 15.0 808.3 310.9
1994 12 09 16:48  00 51 54.180   +39 30 10.99  134782 0.9854 124.4 15.0 813.3 310.7
1994 12 09 16:49  00 51 00.658   +39 39 02.60  134366 0.9854 124.3 15.0 818.3 310.6
1994 12 09 16:50  00 50 06.574   +39 47 55.95  133952 0.9854 124.1 15.0 823.4 310.5
1994 12 09 16:51  00 49 11.920   +39 56 51.00  133541 0.9853 123.9 15.0 828.5 310.3
1994 12 09 16:52  00 48 16.689   +40 05 47.73  133131 0.9853 123.8 15.0 833.6 310.2
1994 12 09 16:53  00 47 20.874   +40 14 46.10  132723 0.9853 123.6 15.0 838.7 310.0
1994 12 09 16:54  00 46 24.466   +40 23 46.08  132318 0.9853 123.4 15.0 843.9 309.9
1994 12 09 16:55  00 45 27.459   +40 32 47.64  131914 0.9853 123.2 15.0 849.0 309.7
1994 12 09 16:56  00 44 29.844   +40 41 50.73  131513 0.9853 123.1 15.0 854.2 309.5
1994 12 09 16:57  00 43 31.614   +40 50 55.32  131114 0.9853 122.9 15.0 859.4 309.4
1994 12 09 16:58  00 42 32.761   +41 00 01.38  130717 0.9853 122.7 15.0 864.6 309.2
1994 12 09 16:59  00 41 33.277   +41 09 08.85  130323 0.9853 122.5 15.0 869.9 309.1
1994 12 09 17:00  00 40 33.154   +41 18 17.70  129930 0.9853 122.4 15.0 875.1 308.9
1994 12 09 17:01  00 39 32.384   +41 27 27.88  129540 0.9853 122.2 15.0 880.4 308.7
1994 12 09 17:02  00 38 30.959   +41 36 39.35  129152 0.9853 122.0 15.0 885.7 308.6
1994 12 09 17:03  00 37 28.870   +41 45 52.06  128767 0.9853 121.8 15.0 891.0 308.4
1994 12 09 17:04  00 36 26.110   +41 55 05.96  128383 0.9853 121.6 15.0 896.4 308.2
1994 12 09 17:05  00 35 22.669   +42 04 21.00  128002 0.9853 121.4 15.0 901.7 308.0
1994 12 09 17:06  00 34 18.540   +42 13 37.13  127624 0.9853 121.2 15.0 907.1 307.9
1994 12 09 17:07  00 33 13.714   +42 22 54.29  127248 0.9853 121.1 15.0 912.4 307.7
1994 12 09 17:08  00 32 08.181   +42 32 12.44  126874 0.9853 120.9 15.0 917.8 307.5
1994 12 09 17:09  00 31 01.935   +42 41 31.50  126502 0.9853 120.7 15.0 923.2 307.3
1994 12 09 17:10  00 29 54.965   +42 50 51.43  126134 0.9853 120.5 15.0 928.6 307.1
1994 12 09 17:11  00 28 47.263   +43 00 12.16  125767 0.9853 120.3 15.0 934.0 306.9
1994 12 09 17:12  00 27 38.821   +43 09 33.62  125403 0.9853 120.1 15.0 939.5 306.7
1994 12 09 17:13  00 26 29.629   +43 18 55.76  125042 0.9853 119.9 14.9 944.9 306.5
1994 12 09 17:14  00 25 19.678   +43 28 18.50  124683 0.9853 119.7 14.9 950.4 306.3
1994 12 09 17:15  00 24 08.960   +43 37 41.77  124326 0.9853 119.5 14.9 955.8 306.1
1994 12 09 17:16  00 22 57.465   +43 47 05.51  123973 0.9853 119.3 14.9 961.3 305.9
1994 12 09 17:17  00 21 45.185   +43 56 29.64  123621 0.9852 119.1 14.9 966.7 305.7
1994 12 09 17:18  00 20 32.110   +44 05 54.09  123273 0.9852 118.9 14.9 972.2 305.5
1994 12 09 17:19  00 19 18.232   +44 15 18.77  122927 0.9852 118.7 14.9 977.7 305.3
1994 12 09 17:20  00 18 03.540   +44 24 43.61  122584 0.9852 118.5 14.9 983.2 305.1
1994 12 09 17:21  00 16 48.027   +44 34 08.52  122243 0.9852 118.2 14.9 988.7 304.8
1994 12 09 17:22  00 15 31.683   +44 43 33.43  121905 0.9852 118.0 14.9 994.1 304.6
1994 12 09 17:23  00 14 14.498   +44 52 58.23  121570 0.9852 117.8 14.9  1000 304.4
1994 12 09 17:24  00 12 56.464   +45 02 22.86  121238 0.9852 117.6 15.0  1005 304.2
1994 12 09 17:25  00 11 37.572   +45 11 47.20  120908 0.9852 117.4 15.0  1011 303.9
1994 12 09 17:26  00 10 17.812   +45 21 11.18  120581 0.9852 117.2 15.0  1016 303.7
1994 12 09 17:27  00 08 57.175   +45 30 34.69  120257 0.9852 116.9 15.0  1022 303.5
1994 12 09 17:28  00 07 35.653   +45 39 57.64  119936 0.9852 116.7 15.0  1027 303.2
1994 12 09 17:29  00 06 13.236   +45 49 19.92  119618 0.9852 116.5 15.0  1033 303.0
1994 12 09 17:30  00 04 49.916   +45 58 41.43  119303 0.9852 116.3 15.0  1038 302.7
1994 12 09 17:31  00 03 25.683   +46 08 02.07  118990 0.9852 116.1 15.0  1043 302.5
1994 12 09 17:32  00 02 00.530   +46 17 21.73  118681 0.9852 115.8 15.0  1049 302.2
1994 12 09 17:33  00 00 34.446   +46 26 40.29  118374 0.9852 115.6 15.0  1054 302.0
1994 12 09 17:34  23 59 07.423   +46 35 57.65  118071 0.9852 115.4 15.0  1060 301.7
1994 12 09 17:35  23 57 39.454   +46 45 13.68  117770 0.9852 115.1 15.0  1065 301.4
1994 12 09 17:36  23 56 10.529   +46 54 28.28  117473 0.9852 114.9 15.0  1071 301.2
1994 12 09 17:37  23 54 40.641   +47 03 41.31  117179 0.9852 114.7 15.0  1076 300.9
1994 12 09 17:38  23 53 09.781   +47 12 52.67  116887 0.9852 114.4 15.0  1081 300.6
1994 12 09 17:39  23 51 37.941   +47 22 02.21  116599 0.9852 114.2 15.0  1087 300.3
1994 12 09 17:40  23 50 05.114   +47 31 09.81  116314 0.9852 114.0 15.0  1092 300.0
1994 12 09 17:41  23 48 31.292   +47 40 15.35  116032 0.9852 113.7 15.0  1097 299.7
1994 12 09 17:42  23 46 56.467   +47 49 18.68  115753 0.9852 113.5 15.0  1103 299.5
1994 12 09 17:43  23 45 20.633   +47 58 19.68  115478 0.9851 113.2 15.0  1108 299.2
1994 12 09 17:44  23 43 43.783   +48 07 18.20  115206 0.9851 113.0 15.0  1113 298.9
1994 12 09 17:45  23 42 05.909   +48 16 14.11  114937 0.9851 112.8 15.0  1118 298.6
1994 12 09 17:46  23 40 27.005   +48 25 07.26  114671 0.9851 112.5 15.0  1124 298.2
1994 12 09 17:47  23 38 47.066   +48 33 57.51  114408 0.9851 112.3 15.0  1129 297.9
1994 12 09 17:48  23 37 06.086   +48 42 44.70  114149 0.9851 112.0 15.0  1134 297.6
1994 12 09 17:49  23 35 24.058   +48 51 28.69  113893 0.9851 111.8 15.0  1139 297.3
1994 12 09 17:50  23 33 40.978   +49 00 09.33  113641 0.9851 111.5 15.0  1144 297.0
1994 12 09 17:51  23 31 56.841   +49 08 46.46  113392 0.9851 111.3 15.0  1149 296.6
1994 12 09 17:52  23 30 11.643   +49 17 19.92  113146 0.9851 111.0 15.0  1154 296.3
1994 12 09 17:53  23 28 25.379   +49 25 49.56  112904 0.9851 110.8 15.0  1159 296.0
1994 12 09 17:54  23 26 38.046   +49 34 15.22  112665 0.9851 110.5 15.0  1164 295.6
1994 12 09 17:55  23 24 49.641   +49 42 36.73  112430 0.9851 110.2 15.0  1169 295.3
1994 12 09 17:56  23 23 00.162   +49 50 53.92  112198 0.9851 110.0 15.0  1174 294.9
1994 12 09 17:57  23 21 09.605   +49 59 06.64  111969 0.9851 109.7 15.0  1178 294.6
1994 12 09 17:58  23 19 17.969   +50 07 14.72  111745 0.9851 109.5 15.0  1183 294.2
1994 12 09 17:59  23 17 25.253   +50 15 17.97  111523 0.9851 109.2 15.0  1188 293.9
1994 12 09 18:00  23 15 31.458   +50 23 16.24  111306 0.9851 108.9 15.0  1192 293.5
1994 12 09 18:01  23 13 36.581   +50 31 09.35  111092 0.9851 108.7 15.0  1197 293.1
1994 12 09 18:02  23 11 40.624   +50 38 57.13  110881 0.9851 108.4 15.0  1202 292.8
1994 12 09 18:03  23 09 43.588   +50 46 39.39  110675 0.9851 108.1 15.0  1206 292.4
1994 12 09 18:04  23 07 45.476   +50 54 15.97  110472 0.9851 107.9 15.1  1211 292.0
1994 12 09 18:05  23 05 46.289   +51 01 46.68  110272 0.9851 107.6 15.1  1215 291.6
1994 12 09 18:06  23 03 46.030   +51 09 11.36  110076 0.9851 107.3 15.1  1219 291.2
1994 12 09 18:07  23 01 44.704   +51 16 29.81  109884 0.9851 107.0 15.1  1224 290.8
1994 12 09 18:08  22 59 42.315   +51 23 41.86  109696 0.9851 106.8 15.1  1228 290.4
1994 12 09 18:09  22 57 38.868   +51 30 47.33  109512 0.9850 106.5 15.1  1232 290.0
1994 12 09 18:10  22 55 34.370   +51 37 46.04  109331 0.9850 106.2 15.1  1236 289.6
1994 12 09 18:11  22 53 28.828   +51 44 37.81  109154 0.9850 105.9 15.1  1240 289.2
1994 12 09 18:12  22 51 22.248   +51 51 22.46  108981 0.9850 105.6 15.1  1244 288.8
1994 12 09 18:13  22 49 14.641   +51 57 59.81  108812 0.9850 105.4 15.1  1248 288.4
1994 12 09 18:14  22 47 06.014   +52 04 29.68  108647 0.9850 105.1 15.1  1252 288.0
1994 12 09 18:15  22 44 56.379   +52 10 51.89  108485 0.9850 104.8 15.1  1255 287.5
1994 12 09 18:16  22 42 45.746   +52 17 06.26  108328 0.9850 104.5 15.1  1259 287.1
1994 12 09 18:17  22 40 34.128   +52 23 12.62  108174 0.9850 104.2 15.1  1263 286.7
1994 12 09 18:18  22 38 21.537   +52 29 10.80  108024 0.9850 104.0 15.1  1266 286.2
1994 12 09 18:19  22 36 07.987   +52 35 00.61  107879 0.9850 103.7 15.1  1269 285.8
1994 12 09 18:20  22 33 53.493   +52 40 41.88  107737 0.9850 103.4 15.1  1273 285.4
1994 12 09 18:21  22 31 38.070   +52 46 14.45  107599 0.9850 103.1 15.2  1276 284.9
1994 12 09 18:22  22 29 21.735   +52 51 38.14  107465 0.9850 102.8 15.2  1279 284.4
1994 12 09 18:23  22 27 04.506   +52 56 52.79  107335 0.9850 102.5 15.2  1282 284.0
1994 12 09 18:24  22 24 46.401   +53 01 58.24  107210 0.9850 102.2 15.2  1285 283.5
1994 12 09 18:25  22 22 27.440   +53 06 54.33  107088 0.9850 101.9 15.2  1288 283.1
1994 12 09 18:26  22 20 07.642   +53 11 40.89  106970 0.9850 101.6 15.2  1291 282.6
1994 12 09 18:27  22 17 47.029   +53 16 17.77  106856 0.9850 101.3 15.2  1294 282.1
1994 12 09 18:28  22 15 25.623   +53 20 44.83  106747 0.9850 101.0 15.2  1296 281.7
1994 12 09 18:29  22 13 03.448   +53 25 01.90  106641 0.9850 100.8 15.2  1299 281.2
1994 12 09 18:30  22 10 40.527   +53 29 08.86  106540 0.9850 100.5 15.2  1302 280.7
1994 12 09 18:31  22 08 16.885   +53 33 05.56  106443 0.9850 100.2 15.2  1304 280.2
1994 12 09 18:32  22 05 52.548   +53 36 51.86  106350 0.9850  99.9 15.2  1306 279.7
1994 12 09 18:33  22 03 27.543   +53 40 27.64  106261 0.9850  99.6 15.3  1308 279.3
1994 12 09 18:34  22 01 01.896   +53 43 52.77  106176 0.9850  99.3 15.3  1310 278.8
1994 12 09 18:35  21 58 35.637   +53 47 07.12  106095 0.9850  99.0 15.3  1312 278.3
1994 12 09 18:36  21 56 08.794   +53 50 10.58  106019 0.9849  98.7 15.3  1314 277.8
1994 12 09 18:37  21 53 41.398   +53 53 03.05  105946 0.9849  98.4 15.3  1316 277.3
1994 12 09 18:38  21 51 13.478   +53 55 44.41  105878 0.9849  98.1 15.3  1318 276.8
1994 12 09 18:39  21 48 45.066   +53 58 14.57  105814 0.9849  97.8 15.3  1319 276.3
1994 12 09 18:40  21 46 16.195   +54 00 33.43  105755 0.9849  97.5 15.3  1321 275.8
1994 12 09 18:41  21 43 46.895   +54 02 40.90  105699 0.9849  97.2 15.3  1322 275.3
1994 12 09 18:42  21 41 17.202   +54 04 36.91  105648 0.9849  96.9 15.3  1324 274.8
1994 12 09 18:43  21 38 47.148   +54 06 21.39  105601 0.9849  96.6 15.3  1325 274.3
1994 12 09 18:44  21 36 16.767   +54 07 54.25  105558 0.9849  96.3 15.4  1326 273.8
1994 12 09 18:45  21 33 46.095   +54 09 15.44  105519 0.9849  96.0 15.4  1327 273.3
1994 12 09 18:46  21 31 15.165   +54 10 24.91  105485 0.9849  95.7 15.4  1328 272.7
1994 12 09 18:47  21 28 44.015   +54 11 22.61  105455 0.9849  95.4 15.4  1328 272.2
1994 12 09 18:48  21 26 12.678   +54 12 08.50  105429 0.9849  95.0 15.4  1329 271.7
1994 12 09 18:49  21 23 41.193   +54 12 42.53  105407 0.9849  94.7 15.4  1330 271.2
1994 12 09 18:50  21 21 09.593   +54 13 04.70  105390 0.9849  94.4 15.4  1330 270.7
1994 12 09 18:51  21 18 37.917   +54 13 14.96  105376 0.9849  94.1 15.4  1330 270.2
1994 12 09 18:52  21 16 06.201   +54 13 13.33  105368 0.9849  93.8 15.4  1331 269.7
1994 12 09 18:53  21 13 34.480   +54 12 59.78  105363 0.9849  93.5 15.5  1331 269.2
1994 12 09 18:54  21 11 02.792   +54 12 34.32  105362 0.9849  93.2 15.5  1331 268.6
1994 12 09 18:55  21 08 31.174   +54 11 56.95  105366 0.9849  92.9 15.5  1331 268.1
1994 12 09 18:56  21 05 59.660   +54 11 07.71  105374 0.9849  92.6 15.5  1330 267.6
1994 12 09 18:57  21 03 28.289   +54 10 06.60  105387 0.9849  92.3 15.5  1330 267.1
1994 12 09 18:58  21 00 57.096   +54 08 53.66  105403 0.9849  92.0 15.5  1330 266.6
1994 12 09 18:59  20 58 26.116   +54 07 28.93  105424 0.9849  91.7 15.5  1329 266.1
1994 12 09 19:00  20 55 55.385   +54 05 52.44  105449 0.9849  91.4 15.5  1329 265.6
1994 12 09 19:01  20 53 24.939   +54 04 04.26  105479 0.9849  91.1 15.6  1328 265.1
1994 12 09 19:02  20 50 54.812   +54 02 04.44  105512 0.9848  90.8 15.6  1327 264.6
1994 12 09 19:03  20 48 25.038   +53 59 53.05  105550 0.9848  90.5 15.6  1326 264.1
1994 12 09 19:04  20 45 55.651   +53 57 30.15  105592 0.9848  90.2 15.6  1325 263.6
1994 12 09 19:05  20 43 26.685   +53 54 55.82  105639 0.9848  89.9 15.6  1324 263.1
1994 12 09 19:06  20 40 58.172   +53 52 10.16  105689 0.9848  89.6 15.6  1323 262.6
1994 12 09 19:07  20 38 30.144   +53 49 13.24  105744 0.9848  89.3 15.6  1321 262.1
1994 12 09 19:08  20 36 02.633   +53 46 05.17  105803 0.9848  89.0 15.7  1320 261.6
1994 12 09 19:09  20 33 35.668   +53 42 46.05  105866 0.9848  88.7 15.7  1318 261.1
1994 12 09 19:10  20 31 09.281   +53 39 15.99  105934 0.9848  88.4 15.7  1316 260.6
1994 12 09 19:11  20 28 43.501   +53 35 35.09  106005 0.9848  88.1 15.7  1315 260.1
1994 12 09 19:12  20 26 18.356   +53 31 43.48  106081 0.9848  87.8 15.7  1313 259.6
1994 12 09 19:13  20 23 53.873   +53 27 41.29  106161 0.9848  87.5 15.7  1311 259.1
1994 12 09 19:14  20 21 30.079   +53 23 28.63  106245 0.9848  87.2 15.7  1309 258.6
1994 12 09 19:15  20 19 07.001   +53 19 05.65  106333 0.9848  86.9 15.8  1307 258.2
1994 12 09 19:16  20 16 44.663   +53 14 32.48  106425 0.9848  86.6 15.8  1304 257.7
1994 12 09 19:17  20 14 23.090   +53 09 49.27  106522 0.9848  86.3 15.8  1302 257.2
1994 12 09 19:18  20 12 02.305   +53 04 56.15  106622 0.9848  86.0 15.8  1300 256.7
1994 12 09 19:19  20 09 42.330   +52 59 53.28  106727 0.9848  85.7 15.8  1297 256.3
1994 12 09 19:20  20 07 23.187   +52 54 40.82  106836 0.9848  85.4 15.8  1294 255.8
1994 12 09 19:21  20 05 04.896   +52 49 18.92  106949 0.9848  85.1 15.8  1292 255.4
1994 12 09 19:22  20 02 47.477   +52 43 47.74  107066 0.9848  84.8 15.9  1289 254.9
1994 12 09 19:23  20 00 30.948   +52 38 07.44  107187 0.9848  84.5 15.9  1286 254.4
1994 12 09 19:24  19 58 15.328   +52 32 18.18  107312 0.9848  84.2 15.9  1283 254.0
1994 12 09 19:25  19 56 00.633   +52 26 20.15  107441 0.9848  83.9 15.9  1280 253.6
1994 12 09 19:26  19 53 46.878   +52 20 13.50  107574 0.9848  83.6 15.9  1277 253.1
1994 12 09 19:27  19 51 34.079   +52 13 58.41  107711 0.9848  83.3 15.9  1273 252.7
1994 12 09 19:28  19 49 22.250   +52 07 35.05  107852 0.9847  83.0 16.0  1270 252.2
1994 12 09 19:29  19 47 11.404   +52 01 03.61  107997 0.9847  82.7 16.0  1267 251.8
1994 12 09 19:30  19 45 01.552   +51 54 24.24  108146 0.9847  82.5 16.0  1263 251.4
1994 12 09 19:31  19 42 52.707   +51 47 37.15  108299 0.9847  82.2 16.0  1260 251.0
1994 12 09 19:32  19 40 44.879   +51 40 42.49  108456 0.9847  81.9 16.0  1256 250.5
1994 12 09 19:33  19 38 38.077   +51 33 40.46  108617 0.9847  81.6 16.0  1252 250.1
1994 12 09 19:34  19 36 32.310   +51 26 31.23  108781 0.9847  81.3 16.1  1248 249.7
1994 12 09 19:35  19 34 27.586   +51 19 14.98  108950 0.9847  81.0 16.1  1245 249.3
1994 12 09 19:36  19 32 23.912   +51 11 51.90  109122 0.9847  80.7 16.1  1241 248.9
1994 12 09 19:37  19 30 21.294   +51 04 22.17  109298 0.9847  80.5 16.1  1237 248.5
1994 12 09 19:38  19 28 19.738   +50 56 45.97  109478 0.9847  80.2 16.1  1233 248.1
1994 12 09 19:39  19 26 19.248   +50 49 03.47  109662 0.9847  79.9 16.1  1228 247.7
1994 12 09 19:40  19 24 19.829   +50 41 14.86  109849 0.9847  79.6 16.2  1224 247.3
1994 12 09 19:41  19 22 21.484   +50 33 20.32  110041 0.9847  79.3 16.2  1220 247.0
1994 12 09 19:42  19 20 24.215   +50 25 20.03  110236 0.9847  79.1 16.2  1216 246.6
1994 12 09 19:43  19 18 28.024   +50 17 14.17  110434 0.9847  78.8 16.2  1211 246.2
1994 12 09 19:44  19 16 32.914   +50 09 02.91  110637 0.9847  78.5 16.2  1207 245.8
1994 12 09 19:45  19 14 38.883   +50 00 46.43  110843 0.9847  78.2 16.2  1202 245.5
1994 12 09 19:46  19 12 45.934   +49 52 24.90  111052 0.9847  78.0 16.3  1198 245.1
1994 12 09 19:47  19 10 54.064   +49 43 58.50  111266 0.9847  77.7 16.3  1193 244.8
1994 12 09 19:48  19 09 03.273   +49 35 27.40  111483 0.9847  77.4 16.3  1189 244.4
1994 12 09 19:49  19 07 13.560   +49 26 51.76  111703 0.9847  77.2 16.3  1184 244.1
1994 12 09 19:50  19 05 24.922   +49 18 11.77  111927 0.9847  76.9 16.3  1179 243.7
1994 12 09 19:51  19 03 37.356   +49 09 27.58  112155 0.9847  76.6 16.4  1174 243.4
1994 12 09 19:52  19 01 50.860   +49 00 39.36  112386 0.9847  76.4 16.4  1170 243.0
1994 12 09 19:53  19 00 05.431   +48 51 47.28  112621 0.9847  76.1 16.4  1165 242.7
1994 12 09 19:54  18 58 21.063   +48 42 51.49  112859 0.9846  75.8 16.4  1160 242.4
1994 12 09 19:55  18 56 37.754   +48 33 52.15  113101 0.9846  75.6 16.4  1155 242.1
1994 12 09 19:56  18 54 55.497   +48 24 49.42  113346 0.9846  75.3 16.4  1150 241.7
1994 12 09 19:57  18 53 14.289   +48 15 43.46  113594 0.9846  75.1 16.5  1145 241.4
1994 12 09 19:58  18 51 34.124   +48 06 34.41  113846 0.9846  74.8 16.5  1140 241.1
1994 12 09 19:59  18 49 54.995   +47 57 22.44  114101 0.9846  74.6 16.5  1135 240.8
1994 12 09 20:00  18 48 16.897   +47 48 07.68  114360 0.9846  74.3 16.5  1130 240.5
1994 12 09 20:01  18 46 39.823   +47 38 50.28  114622 0.9846  74.0 16.5  1124 240.2
1994 12 09 20:02  18 45 03.768   +47 29 30.38  114887 0.9846  73.8 16.6  1119 239.9
1994 12 09 20:03  18 43 28.723   +47 20 08.13  115155 0.9846  73.5 16.6  1114 239.6
1994 12 09 20:04  18 41 54.682   +47 10 43.67  115427 0.9846  73.3 16.6  1109 239.3
1994 12 09 20:05  18 40 21.638   +47 01 17.12  115702 0.9846  73.0 16.6  1104 239.1
1994 12 09 20:06  18 38 49.583   +46 51 48.62  115980 0.9846  72.8 16.6  1098 238.8
1994 12 09 20:07  18 37 18.509   +46 42 18.31  116261 0.9846  72.6 16.7  1093 238.5
1994 12 09 20:08  18 35 48.408   +46 32 46.31  116546 0.9846  72.3 16.7  1088 238.2
1994 12 09 20:09  18 34 19.273   +46 23 12.75  116833 0.9846  72.1 16.7  1082 238.0
1994 12 09 20:10  18 32 51.095   +46 13 37.75  117124 0.9846  71.8 16.7  1077 237.7
1994 12 09 20:11  18 31 23.865   +46 04 01.42  117418 0.9846  71.6 16.7  1072 237.4
1994 12 09 20:12  18 29 57.576   +45 54 23.90  117715 0.9846  71.4 16.8  1066 237.2
1994 12 09 20:13  18 28 32.218   +45 44 45.30  118014 0.9846  71.1 16.8  1061 236.9
1994 12 09 20:14  18 27 07.783   +45 35 05.72  118317 0.9846  70.9 16.8  1055 236.7
1994 12 09 20:15  18 25 44.263   +45 25 25.28  118623 0.9846  70.6 16.8  1050 236.4
1994 12 09 20:16  18 24 21.648   +45 15 44.08  118932 0.9846  70.4 16.8  1044 236.2
1994 12 09 20:17  18 22 59.929   +45 06 02.25  119244 0.9846  70.2 16.8  1039 235.9
1994 12 09 20:18  18 21 39.098   +44 56 19.86  119559 0.9846  70.0 16.9  1034 235.7
1994 12 09 20:19  18 20 19.145   +44 46 37.03  119876 0.9846  69.7 16.9  1028 235.5
1994 12 09 20:20  18 19 00.062   +44 36 53.86  120197 0.9845  69.5 16.9  1023 235.2
1994 12 09 20:21  18 17 41.839   +44 27 10.44  120520 0.9845  69.3 16.9  1017 235.0
1994 12 09 20:22  18 16 24.467   +44 17 26.86  120846 0.9845  69.1 16.9  1012 234.8
1994 12 09 20:23  18 15 07.937   +44 07 43.22  121175 0.9845  68.8 17.0  1006 234.5
1994 12 09 20:24  18 13 52.241   +43 57 59.61  121507 0.9845  68.6 17.0  1001 234.3
1994 12 09 20:25  18 12 37.368   +43 48 16.10  121842 0.9845  68.4 17.0 995.1 234.1
1994 12 09 20:26  18 11 23.309   +43 38 32.79  122179 0.9845  68.2 17.0 989.7 233.9
1994 12 09 20:27  18 10 10.057   +43 28 49.76  122519 0.9845  68.0 17.0 984.2 233.7
1994 12 09 20:28  18 08 57.601   +43 19 07.08  122862 0.9845  67.7 17.1 978.7 233.5
1994 12 09 20:29  18 07 45.932   +43 09 24.84  123207 0.9845  67.5 17.1 973.2 233.3
1994 12 09 20:30  18 06 35.041   +42 59 43.11  123555 0.9845  67.3 17.1 967.7 233.1
1994 12 09 20:31  18 05 24.921   +42 50 01.96  123906 0.9845  67.1 17.1 962.3 232.9
1994 12 09 20:32  18 04 15.560   +42 40 21.47  124259 0.9845  66.9 17.1 956.8 232.7
1994 12 09 20:33  18 03 06.951   +42 30 41.70  124615 0.9845  66.7 17.2 951.3 232.5
1994 12 09 20:34  18 01 59.084   +42 21 02.72  124974 0.9845  66.5 17.2 945.9 232.3
1994 12 09 20:35  18 00 51.951   +42 11 24.60  125334 0.9845  66.3 17.2 940.5 232.1
1994 12 09 20:36  17 59 45.544   +42 01 47.40  125698 0.9845  66.1 17.2 935.0 231.9
1994 12 09 20:37  17 58 39.852   +41 52 11.17  126064 0.9845  65.9 17.2 929.6 231.7
1994 12 09 20:38  17 57 34.868   +41 42 35.99  126432 0.9845  65.7 17.3 924.2 231.6
1994 12 09 20:39  17 56 30.583   +41 33 01.90  126803 0.9845  65.5 17.3 918.8 231.4
1994 12 09 20:40  17 55 26.988   +41 23 28.96  127176 0.9845  65.3 17.3 913.4 231.2
1994 12 09 20:41  17 54 24.075   +41 13 57.23  127552 0.9845  65.1 17.3 908.0 231.0
1994 12 09 20:42  17 53 21.836   +41 04 26.76  127930 0.9845  64.9 17.3 902.7 230.9
1994 12 09 20:43  17 52 20.262   +40 54 57.59  128311 0.9845  64.7 17.4 897.3 230.7
1994 12 09 20:44  17 51 19.345   +40 45 29.78  128693 0.9845  64.5 17.4 892.0 230.5
1994 12 09 20:45  17 50 19.076   +40 36 03.38  129078 0.9845  64.3 17.4 886.7 230.4
1994 12 09 20:46  17 49 19.449   +40 26 38.42  129466 0.9844  64.1 17.4 881.4 230.2
1994 12 09 20:47  17 48 20.454   +40 17 14.96  129856 0.9844  63.9 17.4 876.1 230.0
1994 12 09 20:48  17 47 22.083   +40 07 53.02  130247 0.9844  63.7 17.5 870.8 229.9
1994 12 09 20:49  17 46 24.330   +39 58 32.67  130642 0.9844  63.5 17.5 865.6 229.7
1994 12 09 20:50  17 45 27.185   +39 49 13.92  131038 0.9844  63.3 17.5 860.4 229.6
1994 12 09 20:51  17 44 30.642   +39 39 56.83  131437 0.9844  63.2 17.5 855.2 229.4
1994 12 09 20:52  17 43 34.692   +39 30 41.43  131837 0.9844  63.0 17.5 850.0 229.3
1994 12 09 20:53  17 42 39.329   +39 21 27.74  132240 0.9844  62.8 17.6 844.8 229.1
1994 12 09 20:54  17 41 44.544   +39 12 15.82  132645 0.9844  62.6 17.6 839.6 229.0
1994 12 09 20:55  17 40 50.330   +39 03 05.68  133053 0.9844  62.4 17.6 834.5 228.8
1994 12 09 20:56  17 39 56.680   +38 53 57.35  133462 0.9844  62.3 17.6 829.4 228.7
1994 12 09 20:57  17 39 03.587   +38 44 50.88  133873 0.9844  62.1 17.6 824.3 228.6
1994 12 09 20:58  17 38 11.044   +38 35 46.28  134287 0.9844  61.9 17.6 819.2 228.4
1994 12 09 20:59  17 37 19.043   +38 26 43.58  134702 0.9844  61.7 17.7 814.2 228.3
1994 12 09 21:00  17 36 27.578   +38 17 42.81  135119 0.9844  61.6 17.7 809.2 228.2
1994 12 09 21:01  17 35 36.642   +38 08 43.99  135539 0.9844  61.4 17.7 804.2 228.0
1994 12 09 21:02  17 34 46.228   +37 59 47.15  135960 0.9844  61.2 17.7 799.2 227.9
1994 12 09 21:03  17 33 56.329   +37 50 52.31  136384 0.9844  61.1 17.7 794.2 227.8
1994 12 09 21:04  17 33 06.938   +37 41 59.48  136809 0.9844  60.9 17.8 789.3 227.6
1994 12 09 21:05  17 32 18.050   +37 33 08.70  137236 0.9844  60.7 17.8 784.4 227.5
1994 12 09 21:06  17 31 29.658   +37 24 19.98  137666 0.9844  60.6 17.8 779.5 227.4
1994 12 09 21:07  17 30 41.754   +37 15 33.33  138097 0.9844  60.4 17.8 774.7 227.3
1994 12 09 21:08  17 29 54.334   +37 06 48.78  138530 0.9844  60.2 17.8 769.8 227.2
1994 12 09 21:09  17 29 07.390   +36 58 06.33  138964 0.9844  60.1 17.9 765.0 227.0
1994 12 09 21:10  17 28 20.918   +36 49 26.02  139401 0.9844  59.9 17.9 760.2 226.9
1994 12 09 21:11  17 27 34.909   +36 40 47.84  139839 0.9844  59.8 17.9 755.5 226.8
1994 12 09 21:12  17 26 49.360   +36 32 11.82  140280 0.9844  59.6 17.9 750.7 226.7
1994 12 09 21:13  17 26 04.263   +36 23 37.97  140722 0.9843  59.4 17.9 746.0 226.6
1994 12 09 21:14  17 25 19.613   +36 15 06.29  141166 0.9843  59.3 18.0 741.3 226.5
1994 12 09 21:15  17 24 35.404   +36 06 36.80  141611 0.9843  59.1 18.0 736.7 226.4
1994 12 09 21:16  17 23 51.631   +35 58 09.52  142058 0.9843  59.0 18.0 732.1 226.3
1994 12 09 21:17  17 23 08.288   +35 49 44.44  142507 0.9843  58.8 18.0 727.5 226.1
1994 12 09 21:18  17 22 25.369   +35 41 21.58  142958 0.9843  58.7 18.0 722.9 226.0
1994 12 09 21:19  17 21 42.870   +35 33 00.95  143410 0.9843  58.5 18.0 718.3 225.9
1994 12 09 21:20  17 21 00.784   +35 24 42.56  143865 0.9843  58.4 18.1 713.8 225.8
1994 12 09 21:21  17 20 19.107   +35 16 26.40  144320 0.9843  58.2 18.1 709.3 225.7
1994 12 09 21:22  17 19 37.833   +35 08 12.50  144778 0.9843  58.1 18.1 704.8 225.6
1994 12 09 21:23  17 18 56.957   +35 00 00.84  145237 0.9843  57.9 18.1 700.4 225.5
1994 12 09 21:24  17 18 16.474   +34 51 51.44  145697 0.9843  57.8 18.1 695.9 225.4
1994 12 09 21:25  17 17 36.379   +34 43 44.31  146159 0.9843  57.7 18.2 691.6 225.4
1994 12 09 21:26  17 16 56.667   +34 35 39.44  146623 0.9843  57.5 18.2 687.2 225.3
1994 12 09 21:27  17 16 17.334   +34 27 36.84  147088 0.9843  57.4 18.2 682.8 225.2
1994 12 09 21:28  17 15 38.374   +34 19 36.51  147555 0.9843  57.2 18.2 678.5 225.1
1994 12 09 21:29  17 14 59.783   +34 11 38.46  148024 0.9843  57.1 18.2 674.2 225.0
1994 12 09 21:30  17 14 21.556   +34 03 42.67  148494 0.9843  57.0 18.2 670.0 224.9
1994 12 09 21:31  17 13 43.689   +33 55 49.17  148965 0.9843  56.8 18.3 665.8 224.8
1994 12 09 21:32  17 13 06.177   +33 47 57.94  149438 0.9843  56.7 18.3 661.5 224.7
1994 12 09 21:33  17 12 29.015   +33 40 08.99  149912 0.9843  56.6 18.3 657.4 224.6
1994 12 09 21:34  17 11 52.200   +33 32 22.32  150388 0.9843  56.4 18.3 653.2 224.5
1994 12 09 21:35  17 11 15.726   +33 24 37.92  150865 0.9843  56.3 18.3 649.1 224.5
1994 12 09 21:36  17 10 39.591   +33 16 55.79  151344 0.9843  56.2 18.4 645.0 224.4
1994 12 09 21:37  17 10 03.788   +33 09 15.94  151824 0.9843  56.0 18.4 640.9 224.3
1994 12 09 21:38  17 09 28.315   +33 01 38.36  152306 0.9843  55.9 18.4 636.9 224.2
1994 12 09 21:39  17 08 53.167   +32 54 03.05  152789 0.9842  55.8 18.4 632.8 224.1
1994 12 09 21:40  17 08 18.340   +32 46 30.01  153273 0.9842  55.6 18.4 628.9 224.1
1994 12 09 21:41  17 07 43.831   +32 38 59.22  153759 0.9842  55.5 18.4 624.9 224.0
1994 12 09 21:42  17 07 09.635   +32 31 30.70  154246 0.9842  55.4 18.5 620.9 223.9
1994 12 09 21:43  17 06 35.748   +32 24 04.43  154734 0.9842  55.3 18.5 617.0 223.8
1994 12 09 21:44  17 06 02.167   +32 16 40.42  155224 0.9842  55.1 18.5 613.1 223.8
1994 12 09 21:45  17 05 28.887   +32 09 18.65  155715 0.9842  55.0 18.5 609.3 223.7
1994 12 09 21:46  17 04 55.906   +32 01 59.13  156207 0.9842  54.9 18.5 605.5 223.6
1994 12 09 21:47  17 04 23.220   +31 54 41.84  156700 0.9842  54.8 18.5 601.6 223.5
1994 12 09 21:48  17 03 50.824   +31 47 26.79  157195 0.9842  54.7 18.6 597.9 223.5
1994 12 09 21:49  17 03 18.716   +31 40 13.96  157691 0.9842  54.5 18.6 594.1 223.4
1994 12 09 21:50  17 02 46.892   +31 33 03.36  158189 0.9842  54.4 18.6 590.4 223.3
1994 12 09 21:51  17 02 15.348   +31 25 54.97  158687 0.9842  54.3 18.6 586.7 223.3
1994 12 09 21:52  17 01 44.082   +31 18 48.79  159187 0.9842  54.2 18.6 583.0 223.2
1994 12 09 21:53  17 01 13.089   +31 11 44.81  159688 0.9842  54.1 18.7 579.3 223.1
1994 12 09 21:54  17 00 42.367   +31 04 43.04  160190 0.9842  54.0 18.7 575.7 223.1
1994 12 09 21:55  17 00 11.912   +30 57 43.45  160694 0.9842  53.8 18.7 572.1 223.0
1994 12 09 21:56  16 59 41.721   +30 50 46.04  161198 0.9842  53.7 18.7 568.5 222.9
1994 12 09 21:57  16 59 11.791   +30 43 50.81  161704 0.9842  53.6 18.7 565.0 222.9
1994 12 09 21:58  16 58 42.119   +30 36 57.74  162211 0.9842  53.5 18.7 561.5 222.8
1994 12 09 21:59  16 58 12.701   +30 30 06.84  162719 0.9842  53.4 18.8 558.0 222.7
1994 12 09 22:00  16 57 43.535   +30 23 18.09  163228 0.9842  53.3 18.8 554.5 222.7
1994 12 09 22:01  16 57 14.618   +30 16 31.49  163739 0.9842  53.2 18.8 551.0 222.6
1994 12 09 22:02  16 56 45.947   +30 09 47.02  164250 0.9842  53.1 18.8 547.6 222.6
1994 12 09 22:03  16 56 17.518   +30 03 04.68  164763 0.9842  53.0 18.8 544.2 222.5
1994 12 09 22:04  16 55 49.330   +29 56 24.46  165276 0.9842  52.9 18.8 540.8 222.4
1994 12 09 22:05  16 55 21.379   +29 49 46.35  165791 0.9842  52.8 18.9 537.5 222.4
1994 12 09 22:06  16 54 53.662   +29 43 10.35  166307 0.9841  52.7 18.9 534.1 222.3
1994 12 09 22:07  16 54 26.177   +29 36 36.44  166824 0.9841  52.6 18.9 530.8 222.3
1994 12 09 22:08  16 53 58.921   +29 30 04.62  167342 0.9841  52.5 18.9 527.6 222.2
1994 12 09 22:09  16 53 31.892   +29 23 34.87  167861 0.9841  52.4 18.9 524.3 222.2
1994 12 09 22:10  16 53 05.086   +29 17 07.19  168381 0.9841  52.3 18.9 521.1 222.1
1994 12 09 22:11  16 52 38.501   +29 10 41.57  168902 0.9841  52.2 18.9 517.9 222.0
1994 12 09 22:12  16 52 12.136   +29 04 18.00  169424 0.9841  52.1 19.0 514.7 222.0
1994 12 09 22:13  16 51 45.986   +28 57 56.47  169947 0.9841  52.0 19.0 511.5 221.9
1994 12 09 22:14  16 51 20.050   +28 51 36.98  170471 0.9841  51.9 19.0 508.4 221.9
1994 12 09 22:15  16 50 54.325   +28 45 19.50  170996 0.9841  51.8 19.0 505.3 221.8
1994 12 09 22:16  16 50 28.809   +28 39 04.03  171522 0.9841  51.7 19.0 502.2 221.8
1994 12 09 22:17  16 50 03.499   +28 32 50.57  172049 0.9841  51.6 19.0 499.1 221.7
1994 12 09 22:18  16 49 38.393   +28 26 39.10  172577 0.9841  51.5 19.1 496.0 221.7
1994 12 09 22:19  16 49 13.489   +28 20 29.61  173106 0.9841  51.4 19.1 493.0 221.6
1994 12 09 22:20  16 48 48.785   +28 14 22.10  173635 0.9841  51.3 19.1 490.0 221.6
1994 12 09 22:21  16 48 24.278   +28 08 16.55  174166 0.9841  51.2 19.1 487.0 221.5
1994 12 09 22:22  16 47 59.966   +28 02 12.95  174698 0.9841  51.1 19.1 484.1 221.5
1994 12 09 22:23  16 47 35.847   +27 56 11.30  175230 0.9841  51.0 19.1 481.1 221.4
1994 12 09 22:24  16 47 11.919   +27 50 11.58  175764 0.9841  50.9 19.1 478.2 221.4
1994 12 09 22:25  16 46 48.179   +27 44 13.78  176298 0.9841  50.8 19.2 475.3 221.3
1994 12 09 22:26  16 46 24.625   +27 38 17.90  176834 0.9841  50.7 19.2 472.4 221.3
1994 12 09 22:27  16 46 01.257   +27 32 23.92  177370 0.9841  50.7 19.2 469.6 221.3
1994 12 09 22:28  16 45 38.070   +27 26 31.84  177907 0.9841  50.6 19.2 466.8 221.2
1994 12 09 22:29  16 45 15.064   +27 20 41.64  178445 0.9841  50.5 19.2 464.0 221.2
1994 12 09 22:30  16 44 52.236   +27 14 53.31  178983 0.9841  50.4 19.2 461.2 221.1
1994 12 09 22:31  16 44 29.585   +27 09 06.85  179523 0.9841  50.3 19.3 458.4 221.1
1994 12 09 22:32  16 44 07.108   +27 03 22.24  180063 0.9840  50.2 19.3 455.7 221.0
1994 12 09 22:33  16 43 44.804   +26 57 39.47  180605 0.9840  50.1 19.3 452.9 221.0
1994 12 09 22:34  16 43 22.671   +26 51 58.54  181147 0.9840  50.0 19.3 450.2 221.0
1994 12 09 22:35  16 43 00.707   +26 46 19.43  181690 0.9840  50.0 19.3 447.5 220.9
1994 12 09 22:36  16 42 38.909   +26 40 42.13  182234 0.9840  49.9 19.3 444.9 220.9
1994 12 09 22:37  16 42 17.277   +26 35 06.63  182778 0.9840  49.8 19.3 442.2 220.8
1994 12 09 22:38  16 41 55.809   +26 29 32.93  183323 0.9840  49.7 19.4 439.6 220.8
1994 12 09 22:39  16 41 34.502   +26 24 01.01  183870 0.9840  49.6 19.4 437.0 220.8
1994 12 09 22:40  16 41 13.355   +26 18 30.86  184416 0.9840  49.6 19.4 434.4 220.7
1994 12 09 22:41  16 40 52.367   +26 13 02.47  184964 0.9840  49.5 19.4 431.8 220.7
1994 12 09 22:42  16 40 31.535   +26 07 35.84  185513 0.9840  49.4 19.4 429.3 220.6
1994 12 09 22:43  16 40 10.858   +26 02 10.94  186062 0.9840  49.3 19.4 426.7 220.6
1994 12 09 22:44  16 39 50.334   +25 56 47.78  186612 0.9840  49.2 19.4 424.2 220.6
1994 12 09 22:45  16 39 29.962   +25 51 26.34  187163 0.9840  49.2 19.5 421.7 220.5
1994 12 09 22:46  16 39 09.741   +25 46 06.61  187714 0.9840  49.1 19.5 419.3 220.5
1994 12 09 22:47  16 38 49.667   +25 40 48.58  188266 0.9840  49.0 19.5 416.8 220.5
1994 12 09 22:48  16 38 29.741   +25 35 32.25  188819 0.9840  48.9 19.5 414.4 220.4
1994 12 09 22:49  16 38 09.960   +25 30 17.59  189373 0.9840  48.9 19.5 412.0 220.4
1994 12 09 22:50  16 37 50.324   +25 25 04.61  189927 0.9840  48.8 19.5 409.6 220.3
1994 12 09 22:51  16 37 30.829   +25 19 53.29  190482 0.9840  48.7 19.5 407.2 220.3
1994 12 09 22:52  16 37 11.476   +25 14 43.62  191038 0.9840  48.6 19.6 404.8 220.3
1994 12 09 22:53  16 36 52.262   +25 09 35.59  191594 0.9840  48.6 19.6 402.5 220.2
1994 12 09 22:54  16 36 33.186   +25 04 29.19  192152 0.9840  48.5 19.6 400.1 220.2
1994 12 09 22:55  16 36 14.246   +24 59 24.42  192709 0.9840  48.4 19.6 397.8 220.2
1994 12 09 22:56  16 35 55.442   +24 54 21.26  193268 0.9840  48.4 19.6 395.5 220.1
1994 12 09 22:57  16 35 36.772   +24 49 19.70  193827 0.9840  48.3 19.6 393.2 220.1
1994 12 09 22:58  16 35 18.235   +24 44 19.73  194387 0.9840  48.2 19.6 391.0 220.1
1994 12 09 22:59  16 34 59.828   +24 39 21.34  194948 0.9839  48.1 19.7 388.7 220.0
1994 12 09 23:00  16 34 41.552   +24 34 24.53  195509 0.9839  48.1 19.7 386.5 220.0
1994 12 09 23:01  16 34 23.404   +24 29 29.29  196071 0.9839  48.0 19.7 384.3 220.0
1994 12 09 23:02  16 34 05.383   +24 24 35.59  196633 0.9839  47.9 19.7 382.1 220.0
1994 12 09 23:03  16 33 47.488   +24 19 43.44  197196 0.9839  47.9 19.7 379.9 219.9
1994 12 09 23:04  16 33 29.718   +24 14 52.83  197760 0.9839  47.8 19.7 377.8 219.9
1994 12 09 23:05  16 33 12.071   +24 10 03.74  198324 0.9839  47.7 19.7 375.6 219.9
1994 12 09 23:06  16 32 54.546   +24 05 16.16  198889 0.9839  47.7 19.7 373.5 219.8
1994 12 09 23:07  16 32 37.142   +24 00 30.10  199455 0.9839  47.6 19.8 371.4 219.8
1994 12 09 23:08  16 32 19.859   +23 55 45.52  200021 0.9839  47.5 19.8 369.3 219.8
1994 12 09 23:09  16 32 02.693   +23 51 02.44  200588 0.9839  47.5 19.8 367.2 219.7
1994 12 09 23:10  16 31 45.646   +23 46 20.84  201155 0.9839  47.4 19.8 365.1 219.7
1994 12 09 23:11  16 31 28.714   +23 41 40.70  201723 0.9839  47.3 19.8 363.1 219.7
1994 12 09 23:12  16 31 11.898   +23 37 02.03  202292 0.9839  47.3 19.8 361.0 219.7
1994 12 09 23:13  16 30 55.195   +23 32 24.80  202861 0.9839  47.2 19.8 359.0 219.6
1994 12 09 23:14  16 30 38.606   +23 27 49.02  203431 0.9839  47.2 19.8 357.0 219.6
1994 12 09 23:15  16 30 22.128   +23 23 14.67  204001 0.9839  47.1 19.9 355.0 219.6
1994 12 09 23:16  16 30 05.761   +23 18 41.75  204572 0.9839  47.0 19.9 353.0 219.5
1994 12 09 23:17  16 29 49.504   +23 14 10.23  205144 0.9839  47.0 19.9 351.1 219.5
1994 12 09 23:18  16 29 33.355   +23 09 40.13  205716 0.9839  46.9 19.9 349.1 219.5
1994 12 09 23:19  16 29 17.314   +23 05 11.42  206288 0.9839  46.8 19.9 347.2 219.5
1994 12 09 23:20  16 29 01.380   +23 00 44.10  206861 0.9839  46.8 19.9 345.2 219.4
1994 12 09 23:21  16 28 45.551   +22 56 18.16  207435 0.9839  46.7 19.9 343.3 219.4
1994 12 09 23:22  16 28 29.826   +22 51 53.58  208009 0.9839  46.7 19.9 341.4 219.4
1994 12 09 23:23  16 28 14.205   +22 47 30.37  208584 0.9839  46.6 20.0 339.6 219.4
1994 12 09 23:24  16 27 58.686   +22 43 08.52  209159 0.9839  46.6 20.0 337.7 219.3
1994 12 09 23:25  16 27 43.269   +22 38 48.00  209735 0.9838  46.5 20.0 335.9 219.3
1994 12 09 23:26  16 27 27.952   +22 34 28.83  210312 0.9838  46.4 20.0 334.0 219.3
1994 12 09 23:27  16 27 12.735   +22 30 10.98  210888 0.9838  46.4 20.0 332.2 219.3
1994 12 09 23:28  16 26 57.617   +22 25 54.45  211466 0.9838  46.3 20.0 330.4 219.2
1994 12 09 23:29  16 26 42.597   +22 21 39.23  212044 0.9838  46.3 20.0 328.6 219.2
1994 12 09 23:30  16 26 27.673   +22 17 25.31  212622 0.9838  46.2 20.0 326.8 219.2
1994 12 09 23:31  16 26 12.845   +22 13 12.69  213201 0.9838  46.2 20.1 325.0 219.2
1994 12 09 23:32  16 25 58.113   +22 09 01.35  213780 0.9838  46.1 20.1 323.3 219.1
1994 12 09 23:33  16 25 43.474   +22 04 51.29  214360 0.9838  46.0 20.1 321.5 219.1
1994 12 09 23:34  16 25 28.929   +22 00 42.49  214941 0.9838  46.0 20.1 319.8 219.1
1994 12 09 23:35  16 25 14.476   +21 56 34.96  215521 0.9838  45.9 20.1 318.1 219.1
1994 12 09 23:36  16 25 00.115   +21 52 28.69  216103 0.9838  45.9 20.1 316.4 219.1
1994 12 09 23:37  16 24 45.845   +21 48 23.65  216685 0.9838  45.8 20.1 314.7 219.0
1994 12 09 23:38  16 24 31.664   +21 44 19.86  217267 0.9838  45.8 20.1 313.0 219.0
1994 12 09 23:39  16 24 17.573   +21 40 17.29  217850 0.9838  45.7 20.2 311.3 219.0
1994 12 09 23:40  16 24 03.570   +21 36 15.94  218433 0.9838  45.7 20.2 309.6 219.0
1994 12 09 23:41  16 23 49.654   +21 32 15.81  219017 0.9838  45.6 20.2 308.0 218.9
1994 12 09 23:42  16 23 35.825   +21 28 16.88  219601 0.9838  45.6 20.2 306.4 218.9
1994 12 09 23:43  16 23 22.082   +21 24 19.15  220185 0.9838  45.5 20.2 304.7 218.9
1994 12 09 23:44  16 23 08.424   +21 20 22.61  220770 0.9838  45.5 20.2 303.1 218.9
1994 12 09 23:45  16 22 54.850   +21 16 27.26  221356 0.9838  45.4 20.2 301.5 218.9
1994 12 09 23:46  16 22 41.360   +21 12 33.07  221942 0.9838  45.4 20.2 299.9 218.8
1994 12 09 23:47  16 22 27.953   +21 08 40.06  222528 0.9838  45.3 20.2 298.3 218.8
1994 12 09 23:48  16 22 14.628   +21 04 48.20  223115 0.9838  45.3 20.3 296.8 218.8
1994 12 09 23:49  16 22 01.385   +21 00 57.50  223702 0.9838  45.2 20.3 295.2 218.8
1994 12 09 23:50  16 21 48.222   +20 57 07.94  224290 0.9838  45.2 20.3 293.7 218.8
1994 12 09 23:51  16 21 35.139   +20 53 19.52  224878 0.9838  45.1 20.3 292.1 218.7
1994 12 09 23:52  16 21 22.135   +20 49 32.23  225467 0.9837  45.1 20.3 290.6 218.7
1994 12 09 23:53  16 21 09.210   +20 45 46.07  226056 0.9837  45.0 20.3 289.1 218.7
1994 12 09 23:54  16 20 56.363   +20 42 01.02  226645 0.9837  45.0 20.3 287.6 218.7
1994 12 09 23:55  16 20 43.593   +20 38 17.08  227235 0.9837  44.9 20.3 286.1 218.7
1994 12 09 23:56  16 20 30.899   +20 34 34.24  227825 0.9837  44.9 20.3 284.6 218.7
1994 12 09 23:57  16 20 18.281   +20 30 52.49  228416 0.9837  44.8 20.4 283.2 218.6
1994 12 09 23:58  16 20 05.739   +20 27 11.83  229007 0.9837  44.8 20.4 281.7 218.6
1994 12 09 23:59  16 19 53.270   +20 23 32.25  229598 0.9837  44.8 20.4 280.3 218.6
1994 12 10 00:00  16 19 40.876   +20 19 53.75  230190 0.9837  44.7 20.4 278.8 218.6
1994 12 10 00:01  16 19 28.555   +20 16 16.31  230782 0.9837  44.7 20.4 277.4 218.6
1994 12 10 00:02  16 19 16.307   +20 12 39.94  231375 0.9837  44.6 20.4 276.0 218.5
1994 12 10 00:03  16 19 04.130   +20 09 04.61  231968 0.9837  44.6 20.4 274.6 218.5
1994 12 10 00:04  16 18 52.025   +20 05 30.34  232561 0.9837  44.5 20.4 273.2 218.5
1994 12 10 00:05  16 18 39.991   +20 01 57.10  233155 0.9837  44.5 20.4 271.8 218.5
1994 12 10 00:06  16 18 28.027   +19 58 24.89  233749 0.9837  44.4 20.4 270.4 218.5
1994 12 10 00:07  16 18 16.132   +19 54 53.72  234343 0.9837  44.4 20.5 269.0 218.5
1994 12 10 00:08  16 18 04.307   +19 51 23.56  234938 0.9837  44.4 20.5 267.7 218.4
1994 12 10 00:09  16 17 52.550   +19 47 54.42  235533 0.9837  44.3 20.5 266.3 218.4
1994 12 10 00:10  16 17 40.860   +19 44 26.28  236129 0.9837  44.3 20.5 265.0 218.4
1994 12 10 00:11  16 17 29.238   +19 40 59.14  236725 0.9837  44.2 20.5 263.6 218.4
1994 12 10 00:12  16 17 17.683   +19 37 33.00  237321 0.9837  44.2 20.5 262.3 218.4
1994 12 10 00:13  16 17 06.193   +19 34 07.84  237918 0.9837  44.1 20.5 261.0 218.4
1994 12 10 00:14  16 16 54.769   +19 30 43.67  238515 0.9837  44.1 20.5 259.7 218.3
1994 12 10 00:15  16 16 43.411   +19 27 20.48  239112 0.9837  44.1 20.5 258.4 218.3
1994 12 10 00:16  16 16 32.116   +19 23 58.25  239710 0.9837  44.0 20.6 257.1 218.3
1994 12 10 00:17  16 16 20.886   +19 20 36.98  240308 0.9837  44.0 20.6 255.8 218.3
1994 12 10 00:18  16 16 09.719   +19 17 16.67  240907 0.9836  43.9 20.6 254.6 218.3
1994 12 10 00:19  16 15 58.615   +19 13 57.32  241505 0.9836  43.9 20.6 253.3 218.3
1994 12 10 00:20  16 15 47.573   +19 10 38.90  242105 0.9836  43.9 20.6 252.1 218.3
1994 12 10 00:21  16 15 36.594   +19 07 21.43  242704 0.9836  43.8 20.6 250.8 218.2
1994 12 10 00:22  16 15 25.675   +19 04 04.89  243304 0.9836  43.8 20.6 249.6 218.2
1994 12 10 00:23  16 15 14.817   +19 00 49.28  243904 0.9836  43.7 20.6 248.3 218.2
1994 12 10 00:24  16 15 04.020   +18 57 34.58  244504 0.9836  43.7 20.6 247.1 218.2
1994 12 10 00:25  16 14 53.283   +18 54 20.81  245105 0.9836  43.7 20.6 245.9 218.2
1994 12 10 00:26  16 14 42.605   +18 51 07.94  245706 0.9836  43.6 20.7 244.7 218.2
1994 12 10 00:27  16 14 31.986   +18 47 55.98  246308 0.9836  43.6 20.7 243.5 218.1
1994 12 10 00:28  16 14 21.425   +18 44 44.91  246909 0.9836  43.6 20.7 242.3 218.1
1994 12 10 00:29  16 14 10.922   +18 41 34.74  247511 0.9836  43.5 20.7 241.2 218.1
1994 12 10 00:30  16 14 00.477   +18 38 25.45  248114 0.9836  43.5 20.7 240.0 218.1
1994 12 10 00:31  16 13 50.089   +18 35 17.05  248716 0.9836  43.4 20.7 238.8 218.1
1994 12 10 00:32  16 13 39.757   +18 32 09.52  249319 0.9836  43.4 20.7 237.7 218.1
1994 12 10 00:33  16 13 29.481   +18 29 02.86  249923 0.9836  43.4 20.7 236.5 218.1
1994 12 10 00:34  16 13 19.262   +18 25 57.07  250526 0.9836  43.3 20.7 235.4 218.1
1994 12 10 00:35  16 13 09.097   +18 22 52.13  251130 0.9836  43.3 20.7 234.3 218.0
1994 12 10 00:36  16 12 58.987   +18 19 48.05  251734 0.9836  43.3 20.7 233.1 218.0
1994 12 10 00:37  16 12 48.932   +18 16 44.82  252339 0.9836  43.2 20.8 232.0 218.0
1994 12 10 00:38  16 12 38.930   +18 13 42.43  252944 0.9836  43.2 20.8 230.9 218.0
1994 12 10 00:39  16 12 28.982   +18 10 40.88  253549 0.9836  43.2 20.8 229.8 218.0
1994 12 10 00:40  16 12 19.087   +18 07 40.16  254154 0.9836  43.1 20.8 228.7 218.0
1994 12 10 00:41  16 12 09.245   +18 04 40.27  254760 0.9836  43.1 20.8 227.6 218.0
1994 12 10 00:42  16 11 59.455   +18 01 41.21  255366 0.9836  43.1 20.8 226.6 217.9
1994 12 10 00:43  16 11 49.716   +17 58 42.96  255972 0.9836  43.0 20.8 225.5 217.9
1994 12 10 00:44  16 11 40.030   +17 55 45.52  256579 0.9836  43.0 20.8 224.4 217.9
1994 12 10 00:45  16 11 30.394   +17 52 48.89  257186 0.9835  42.9 20.8 223.4 217.9
1994 12 10 00:46  16 11 20.809   +17 49 53.06  257793 0.9835  42.9 20.8 222.3 217.9
1994 12 10 00:47  16 11 11.274   +17 46 58.03  258400 0.9835  42.9 20.9 221.3 217.9
1994 12 10 00:48  16 11 01.789   +17 44 03.79  259008 0.9835  42.8 20.9 220.2 217.9
1994 12 10 00:49  16 10 52.354   +17 41 10.34  259616 0.9835  42.8 20.9 219.2 217.9
1994 12 10 00:50  16 10 42.968   +17 38 17.67  260224 0.9835  42.8 20.9 218.2 217.9
1994 12 10 00:51  16 10 33.630   +17 35 25.78  260832 0.9835  42.8 20.9 217.2 217.8
1994 12 10 00:52  16 10 24.341   +17 32 34.67  261441 0.9835  42.7 20.9 216.2 217.8
1994 12 10 00:53  16 10 15.100   +17 29 44.32  262050 0.9835  42.7 20.9 215.1 217.8
1994 12 10 00:54  16 10 05.907   +17 26 54.73  262659 0.9835  42.7 20.9 214.2 217.8
1994 12 10 00:55  16 09 56.760   +17 24 05.91  263269 0.9835  42.6 20.9 213.2 217.8
1994 12 10 00:56  16 09 47.661   +17 21 17.84  263879 0.9835  42.6 20.9 212.2 217.8
1994 12 10 00:57  16 09 38.608   +17 18 30.51  264489 0.9835  42.6 20.9 211.2 217.8
1994 12 10 00:58  16 09 29.602   +17 15 43.94  265099 0.9835  42.5 20.9 210.2 217.8
1994 12 10 00:59  16 09 20.641   +17 12 58.10  265710 0.9835  42.5 21.0 209.3 217.7
1994 12 10 01:00  16 09 11.726   +17 10 13.00  266320 0.9835  42.5 21.0 208.3 217.7
1994 12 10 01:01  16 09 02.856   +17 07 28.63  266931 0.9835  42.4 21.0 207.4 217.7
1994 12 10 01:02  16 08 54.031   +17 04 44.99  267543 0.9835  42.4 21.0 206.4 217.7
1994 12 10 01:03  16 08 45.251   +17 02 02.07  268154 0.9835  42.4 21.0 205.5 217.7
1994 12 10 01:04  16 08 36.514   +16 59 19.87  268766 0.9835  42.3 21.0 204.5 217.7
1994 12 10 01:05  16 08 27.822   +16 56 38.38  269378 0.9835  42.3 21.0 203.6 217.7
1994 12 10 01:06  16 08 19.173   +16 53 57.60  269991 0.9835  42.3 21.0 202.7 217.7
1994 12 10 01:07  16 08 10.567   +16 51 17.53  270603 0.9835  42.3 21.0 201.8 217.7
1994 12 10 01:08  16 08 02.004   +16 48 38.15  271216 0.9835  42.2 21.0 200.9 217.7
1994 12 10 01:09  16 07 53.484   +16 45 59.48  271829 0.9835  42.2 21.0 199.9 217.6
1994 12 10 01:10  16 07 45.006   +16 43 21.49  272442 0.9835  42.2 21.1 199.0 217.6
1994 12 10 01:11  16 07 36.570   +16 40 44.20  273056 0.9835  42.1 21.1 198.2 217.6
1994 12 10 01:12  16 07 28.175   +16 38 07.59  273669 0.9834  42.1 21.1 197.3 217.6
1994 12 10 01:13  16 07 19.822   +16 35 31.66  274283 0.9834  42.1 21.1 196.4 217.6
1994 12 10 01:14  16 07 11.510   +16 32 56.40  274897 0.9834  42.1 21.1 195.5 217.6
1994 12 10 01:15  16 07 03.239   +16 30 21.82  275512 0.9834  42.0 21.1 194.6 217.6
1994 12 10 01:16  16 06 55.008   +16 27 47.90  276126 0.9834  42.0 21.1 193.8 217.6
1994 12 10 01:17  16 06 46.818   +16 25 14.65  276741 0.9834  42.0 21.1 192.9 217.6
1994 12 10 01:18  16 06 38.667   +16 22 42.06  277356 0.9834  41.9 21.1 192.1 217.6
1994 12 10 01:19  16 06 30.556   +16 20 10.12  277972 0.9834  41.9 21.1 191.2 217.5
1994 12 10 01:20  16 06 22.484   +16 17 38.84  278587 0.9834  41.9 21.1 190.4 217.5
1994 12 10 01:21  16 06 14.451   +16 15 08.20  279203 0.9834  41.9 21.1 189.5 217.5
1994 12 10 01:22  16 06 06.457   +16 12 38.21  279819 0.9834  41.8 21.2 188.7 217.5
1994 12 10 01:23  16 05 58.502   +16 10 08.86  280435 0.9834  41.8 21.2 187.9 217.5
1994 12 10 01:24  16 05 50.585   +16 07 40.15  281051 0.9834  41.8 21.2 187.0 217.5
1994 12 10 01:25  16 05 42.705   +16 05 12.06  281668 0.9834  41.8 21.2 186.2 217.5
1994 12 10 01:26  16 05 34.863   +16 02 44.61  282285 0.9834  41.7 21.2 185.4 217.5
1994 12 10 01:27  16 05 27.059   +16 00 17.79  282902 0.9834  41.7 21.2 184.6 217.5
1994 12 10 01:28  16 05 19.292   +15 57 51.58  283519 0.9834  41.7 21.2 183.8 217.5
1994 12 10 01:29  16 05 11.562   +15 55 25.99  284137 0.9834  41.7 21.2 183.0 217.5
1994 12 10 01:30  16 05 03.868   +15 53 01.02  284754 0.9834  41.6 21.2 182.2 217.4
1994 12 10 01:31  16 04 56.211   +15 50 36.66  285372 0.9834  41.6 21.2 181.4 217.4
1994 12 10 01:32  16 04 48.589   +15 48 12.90  285990 0.9834  41.6 21.2 180.6 217.4
1994 12 10 01:33  16 04 41.004   +15 45 49.75  286608 0.9834  41.6 21.2 179.9 217.4
1994 12 10 01:34  16 04 33.454   +15 43 27.20  287227 0.9834  41.5 21.2 179.1 217.4
1994 12 10 01:35  16 04 25.940   +15 41 05.24  287846 0.9834  41.5 21.3 178.3 217.4
1994 12 10 01:36  16 04 18.461   +15 38 43.88  288464 0.9834  41.5 21.3 177.6 217.4
1994 12 10 01:37  16 04 11.016   +15 36 23.11  289083 0.9834  41.5 21.3 176.8 217.4
1994 12 10 01:38  16 04 03.607   +15 34 02.92  289703 0.9834  41.4 21.3 176.0 217.4
1994 12 10 01:39  16 03 56.231   +15 31 43.32  290322 0.9833  41.4 21.3 175.3 217.4
1994 12 10 01:40  16 03 48.890   +15 29 24.29  290942 0.9833  41.4 21.3 174.5 217.4
1994 12 10 01:41  16 03 41.583   +15 27 05.84  291562 0.9833  41.4 21.3 173.8 217.4
1994 12 10 01:42  16 03 34.309   +15 24 47.97  292182 0.9833  41.3 21.3 173.1 217.3
1994 12 10 01:43  16 03 27.069   +15 22 30.66  292802 0.9833  41.3 21.3 172.3 217.3
1994 12 10 01:44  16 03 19.863   +15 20 13.92  293422 0.9833  41.3 21.3 171.6 217.3
1994 12 10 01:45  16 03 12.689   +15 17 57.74  294043 0.9833  41.3 21.3 170.9 217.3
1994 12 10 01:46  16 03 05.548   +15 15 42.12  294663 0.9833  41.2 21.3 170.2 217.3
1994 12 10 01:47  16 02 58.439   +15 13 27.06  295284 0.9833  41.2 21.3 169.4 217.3
1994 12 10 01:48  16 02 51.363   +15 11 12.55  295906 0.9833  41.2 21.4 168.7 217.3
1994 12 10 01:49  16 02 44.319   +15 08 58.59  296527 0.9833  41.2 21.4 168.0 217.3
1994 12 10 01:50  16 02 37.307   +15 06 45.18  297148 0.9833  41.1 21.4 167.3 217.3
1994 12 10 01:51  16 02 30.327   +15 04 32.31  297770 0.9833  41.1 21.4 166.6 217.3
1994 12 10 01:52  16 02 23.378   +15 02 19.98  298392 0.9833  41.1 21.4 165.9 217.3
1994 12 10 01:53  16 02 16.461   +15 00 08.19  299014 0.9833  41.1 21.4 165.2 217.3
1994 12 10 01:54  16 02 09.574   +14 57 56.93  299636 0.9833  41.1 21.4 164.6 217.3
1994 12 10 01:55  16 02 02.719   +14 55 46.20  300258 0.9833  41.0 21.4 163.9 217.2
1994 12 10 01:56  16 01 55.894   +14 53 36.01  300881 0.9833  41.0 21.4 163.2 217.2
1994 12 10 01:57  16 01 49.099   +14 51 26.33  301504 0.9833  41.0 21.4 162.5 217.2
1994 12 10 01:58  16 01 42.335   +14 49 17.18  302127 0.9833  41.0 21.4 161.9 217.2
1994 12 10 01:59  16 01 35.601   +14 47 08.55  302750 0.9833  40.9 21.4 161.2 217.2
1994 12 10 02:00  16 01 28.897   +14 45 00.43  303373 0.9833  40.9 21.4 160.5 217.2
1994 12 10 02:01  16 01 22.222   +14 42 52.83  303996 0.9833  40.9 21.4 159.9 217.2
1994 12 10 02:02  16 01 15.577   +14 40 45.74  304620 0.9833  40.9 21.5 159.2 217.2
1994 12 10 02:03  16 01 08.961   +14 38 39.16  305244 0.9833  40.9 21.5 158.6 217.2
1994 12 10 02:04  16 01 02.374   +14 36 33.08  305868 0.9833  40.8 21.5 157.9 217.2
1994 12 10 02:05  16 00 55.817   +14 34 27.50  306492 0.9832  40.8 21.5 157.3 217.2
1994 12 10 02:06  16 00 49.288   +14 32 22.42  307116 0.9832  40.8 21.5 156.6 217.2
1994 12 10 02:07  16 00 42.787   +14 30 17.84  307740 0.9832  40.8 21.5 156.0 217.2
1994 12 10 02:08  16 00 36.315   +14 28 13.75  308365 0.9832  40.8 21.5 155.4 217.2
1994 12 10 02:09  16 00 29.871   +14 26 10.15  308989 0.9832  40.7 21.5 154.8 217.1
1994 12 10 02:10  16 00 23.455   +14 24 07.04  309614 0.9832  40.7 21.5 154.1 217.1
1994 12 10 02:11  16 00 17.066   +14 22 04.42  310239 0.9832  40.7 21.5 153.5 217.1
1994 12 10 02:12  16 00 10.706   +14 20 02.28  310865 0.9832  40.7 21.5 152.9 217.1
1994 12 10 02:13  16 00 04.372   +14 18 00.61  311490 0.9832  40.7 21.5 152.3 217.1
1994 12 10 02:14  15 59 58.066   +14 15 59.43  312115 0.9832  40.6 21.5 151.7 217.1
1994 12 10 02:15  15 59 51.788   +14 13 58.72  312741 0.9832  40.6 21.5 151.1 217.1
1994 12 10 02:16  15 59 45.536   +14 11 58.48  313367 0.9832  40.6 21.6 150.5 217.1
1994 12 10 02:17  15 59 39.311   +14 09 58.71  313993 0.9832  40.6 21.6 149.9 217.1
1994 12 10 02:18  15 59 33.112   +14 07 59.40  314619 0.9832  40.6 21.6 149.3 217.1
1994 12 10 02:19  15 59 26.940   +14 06 00.56  315245 0.9832  40.5 21.6 148.7 217.1
1994 12 10 02:20  15 59 20.794   +14 04 02.19  315871 0.9832  40.5 21.6 148.1 217.1
1994 12 10 02:21  15 59 14.674   +14 02 04.27  316498 0.9832  40.5 21.6 147.5 217.1
1994 12 10 02:22  15 59 08.580   +14 00 06.80  317125 0.9832  40.5 21.6 146.9 217.1
1994 12 10 02:23  15 59 02.512   +13 58 09.79  317752 0.9832  40.5 21.6 146.3 217.1
1994 12 10 02:24  15 58 56.469   +13 56 13.24  318379 0.9832  40.4 21.6 145.8 217.1
1994 12 10 02:25  15 58 50.452   +13 54 17.13  319006 0.9832  40.4 21.6 145.2 217.0
1994 12 10 02:26  15 58 44.461   +13 52 21.47  319633 0.9832  40.4 21.6 144.6 217.0
1994 12 10 02:27  15 58 38.494   +13 50 26.25  320260 0.9832  40.4 21.6 144.1 217.0
1994 12 10 02:28  15 58 32.552   +13 48 31.47  320888 0.9832  40.4 21.6 143.5 217.0
1994 12 10 02:29  15 58 26.635   +13 46 37.14  321516 0.9832  40.3 21.6 142.9 217.0
1994 12 10 02:30  15 58 20.743   +13 44 43.24  322143 0.9832  40.3 21.6 142.4 217.0
1994 12 10 02:31  15 58 14.875   +13 42 49.77  322771 0.9832  40.3 21.7 141.8 217.0
1994 12 10 02:32  15 58 09.032   +13 40 56.74  323400 0.9831  40.3 21.7 141.3 217.0
1994 12 10 02:33  15 58 03.213   +13 39 04.13  324028 0.9831  40.3 21.7 140.7 217.0
1994 12 10 02:34  15 57 57.417   +13 37 11.96  324656 0.9831  40.3 21.7 140.2 217.0
1994 12 10 02:35  15 57 51.646   +13 35 20.20  325285 0.9831  40.2 21.7 139.6 217.0
1994 12 10 02:36  15 57 45.899   +13 33 28.87  325913 0.9831  40.2 21.7 139.1 217.0
1994 12 10 02:37  15 57 40.175   +13 31 37.97  326542 0.9831  40.2 21.7 138.6 217.0
1994 12 10 02:38  15 57 34.475   +13 29 47.48  327171 0.9831  40.2 21.7 138.0 217.0
1994 12 10 02:39  15 57 28.798   +13 27 57.40  327800 0.9831  40.2 21.7 137.5 217.0
1994 12 10 02:40  15 57 23.144   +13 26 07.74  328429 0.9831  40.2 21.7 137.0 217.0
1994 12 10 02:41  15 57 17.513   +13 24 18.49  329059 0.9831  40.1 21.7 136.5 217.0
1994 12 10 02:42  15 57 11.905   +13 22 29.65  329688 0.9831  40.1 21.7 135.9 217.0
1994 12 10 02:43  15 57 06.320   +13 20 41.22  330318 0.9831  40.1 21.7 135.4 216.9
1994 12 10 02:44  15 57 00.757   +13 18 53.19  330948 0.9831  40.1 21.7 134.9 216.9
1994 12 10 02:45  15 56 55.217   +13 17 05.57  331577 0.9831  40.1 21.7 134.4 216.9
1994 12 10 02:46  15 56 49.700   +13 15 18.35  332207 0.9831  40.0 21.8 133.9 216.9
1994 12 10 02:47  15 56 44.204   +13 13 31.52  332838 0.9831  40.0 21.8 133.4 216.9
1994 12 10 02:48  15 56 38.731   +13 11 45.09  333468 0.9831  40.0 21.8 132.9 216.9
1994 12 10 02:49  15 56 33.280   +13 09 59.06  334098 0.9831  40.0 21.8 132.4 216.9
1994 12 10 02:50  15 56 27.850   +13 08 13.41  334729 0.9831  40.0 21.8 131.9 216.9
1994 12 10 02:51  15 56 22.443   +13 06 28.16  335359 0.9831  40.0 21.8 131.4 216.9
1994 12 10 02:52  15 56 17.056   +13 04 43.30  335990 0.9831  39.9 21.8 130.9 216.9
1994 12 10 02:53  15 56 11.692   +13 02 58.82  336621 0.9831  39.9 21.8 130.4 216.9
1994 12 10 02:54  15 56 06.348   +13 01 14.73  337252 0.9831  39.9 21.8 129.9 216.9
1994 12 10 02:55  15 56 01.026   +12 59 31.01  337883 0.9831  39.9 21.8 129.4 216.9
1994 12 10 02:56  15 55 55.725   +12 57 47.68  338514 0.9831  39.9 21.8 128.9 216.9
1994 12 10 02:57  15 55 50.445   +12 56 04.73  339145 0.9831  39.9 21.8 128.5 216.9
1994 12 10 02:58  15 55 45.185   +12 54 22.15  339777 0.9831  39.9 21.8 128.0 216.9
1994 12 10 02:59  15 55 39.947   +12 52 39.94  340408 0.9830  39.8 21.8 127.5 216.9
1994 12 10 03:00  15 55 34.729   +12 50 58.11  341040 0.9830  39.8 21.8 127.0 216.9
1994 12 10 03:01  15 55 29.531   +12 49 16.65  341672 0.9830  39.8 21.8 126.6 216.9
1994 12 10 03:02  15 55 24.354   +12 47 35.56  342304 0.9830  39.8 21.9 126.1 216.8
1994 12 10 03:03  15 55 19.197   +12 45 54.83  342936 0.9830  39.8 21.9 125.6 216.8
1994 12 10 03:04  15 55 14.060   +12 44 14.47  343568 0.9830  39.8 21.9 125.2 216.8
1994 12 10 03:05  15 55 08.943   +12 42 34.47  344200 0.9830  39.7 21.9 124.7 216.8
1994 12 10 03:06  15 55 03.846   +12 40 54.83  344833 0.9830  39.7 21.9 124.3 216.8
1994 12 10 03:07  15 54 58.768   +12 39 15.54  345465 0.9830  39.7 21.9 123.8 216.8
1994 12 10 03:08  15 54 53.711   +12 37 36.62  346098 0.9830  39.7 21.9 123.4 216.8
1994 12 10 03:09  15 54 48.673   +12 35 58.05  346731 0.9830  39.7 21.9 122.9 216.8
1994 12 10 03:10  15 54 43.654   +12 34 19.83  347363 0.9830  39.7 21.9 122.5 216.8
1994 12 10 03:11  15 54 38.654   +12 32 41.97  347996 0.9830  39.7 21.9 122.0 216.8
1994 12 10 03:12  15 54 33.674   +12 31 04.45  348629 0.9830  39.6 21.9 121.6 216.8
1994 12 10 03:13  15 54 28.713   +12 29 27.29  349263 0.9830  39.6 21.9 121.1 216.8
1994 12 10 03:14  15 54 23.771   +12 27 50.46  349896 0.9830  39.6 21.9 120.7 216.8
1994 12 10 03:15  15 54 18.848   +12 26 13.99  350529 0.9830  39.6 21.9 120.3 216.8
1994 12 10 03:16  15 54 13.943   +12 24 37.85  351163 0.9830  39.6 21.9 119.8 216.8
1994 12 10 03:17  15 54 09.058   +12 23 02.06  351796 0.9830  39.6 21.9 119.4 216.8
1994 12 10 03:18  15 54 04.190   +12 21 26.60  352430 0.9830  39.6 21.9 119.0 216.8
1994 12 10 03:19  15 53 59.342   +12 19 51.49  353064 0.9830  39.5 22.0 118.5 216.8
1994 12 10 03:20  15 53 54.511   +12 18 16.70  353698 0.9830  39.5 22.0 118.1 216.8
1994 12 10 03:21  15 53 49.699   +12 16 42.26  354332 0.9830  39.5 22.0 117.7 216.8
1994 12 10 03:22  15 53 44.905   +12 15 08.14  354966 0.9830  39.5 22.0 117.3 216.8
1994 12 10 03:23  15 53 40.129   +12 13 34.35  355600 0.9830  39.5 22.0 116.8 216.8
1994 12 10 03:24  15 53 35.371   +12 12 00.90  356234 0.9830  39.5 22.0 116.4 216.8
1994 12 10 03:25  15 53 30.631   +12 10 27.77  356869 0.9830  39.5 22.0 116.0 216.7
1994 12 10 03:26  15 53 25.908   +12 08 54.96  357503 0.9829  39.4 22.0 115.6 216.7
1994 12 10 03:27  15 53 21.203   +12 07 22.48  358138 0.9829  39.4 22.0 115.2 216.7
1994 12 10 03:28  15 53 16.516   +12 05 50.33  358773 0.9829  39.4 22.0 114.8 216.7
1994 12 10 03:29  15 53 11.846   +12 04 18.49  359408 0.9829  39.4 22.0 114.4 216.7
1994 12 10 03:30  15 53 07.194   +12 02 46.97  360042 0.9829  39.4 22.0 114.0 216.7
1994 12 10 03:31  15 53 02.559   +12 01 15.77  360678 0.9829  39.4 22.0 113.6 216.7
1994 12 10 03:32  15 52 57.941   +11 59 44.88  361313 0.9829  39.4 22.0 113.2 216.7
1994 12 10 03:33  15 52 53.340   +11 58 14.31  361948 0.9829  39.4 22.0 112.8 216.7
1994 12 10 03:34  15 52 48.756   +11 56 44.05  362583 0.9829  39.3 22.0 112.4 216.7
1994 12 10 03:35  15 52 44.188   +11 55 14.11  363219 0.9829  39.3 22.0 112.0 216.7
1994 12 10 03:36  15 52 39.638   +11 53 44.47  363854 0.9829  39.3 22.0 111.6 216.7
1994 12 10 03:37  15 52 35.104   +11 52 15.14  364490 0.9829  39.3 22.1 111.2 216.7
1994 12 10 03:38  15 52 30.587   +11 50 46.12  365125 0.9829  39.3 22.1 110.8 216.7
1994 12 10 03:39  15 52 26.087   +11 49 17.40  365761 0.9829  39.3 22.1 110.4 216.7
1994 12 10 03:40  15 52 21.603   +11 47 48.98  366397 0.9829  39.3 22.1 110.1 216.7
1994 12 10 03:41  15 52 17.135   +11 46 20.87  367033 0.9829  39.2 22.1 109.7 216.7
1994 12 10 03:42  15 52 12.683   +11 44 53.06  367669 0.9829  39.2 22.1 109.3 216.7
1994 12 10 03:43  15 52 08.248   +11 43 25.55  368305 0.9829  39.2 22.1 108.9 216.7
1994 12 10 03:44  15 52 03.829   +11 41 58.33  368942 0.9829  39.2 22.1 108.6 216.7
1994 12 10 03:45  15 51 59.426   +11 40 31.41  369578 0.9829  39.2 22.1 108.2 216.7
1994 12 10 03:46  15 51 55.038   +11 39 04.78  370214 0.9829  39.2 22.1 107.8 216.7
1994 12 10 03:47  15 51 50.667   +11 37 38.45  370851 0.9829  39.2 22.1 107.4 216.7
1994 12 10 03:48  15 51 46.311   +11 36 12.41  371488 0.9829  39.2 22.1 107.1 216.7
1994 12 10 03:49  15 51 41.970   +11 34 46.66  372124 0.9829  39.1 22.1 106.7 216.7
1994 12 10 03:50  15 51 37.646   +11 33 21.20  372761 0.9829  39.1 22.1 106.3 216.7
1994 12 10 03:51  15 51 33.337   +11 31 56.03  373398 0.9829  39.1 22.1 106.0 216.6
1994 12 10 03:52  15 51 29.043   +11 30 31.14  374035 0.9829  39.1 22.1 105.6 216.6
1994 12 10 03:53  15 51 24.764   +11 29 06.54  374672 0.9828  39.1 22.1 105.3 216.6
1994 12 10 03:54  15 51 20.501   +11 27 42.22  375309 0.9828  39.1 22.1 104.9 216.6
1994 12 10 03:55  15 51 16.253   +11 26 18.18  375947 0.9828  39.1 22.1 104.5 216.6
1994 12 10 03:56  15 51 12.020   +11 24 54.43  376584 0.9828  39.1 22.2 104.2 216.6
1994 12 10 03:57  15 51 07.802   +11 23 30.95  377221 0.9828  39.1 22.2 103.8 216.6
1994 12 10 03:58  15 51 03.599   +11 22 07.75  377859 0.9828  39.0 22.2 103.5 216.6
1994 12 10 03:59  15 50 59.411   +11 20 44.83  378496 0.9828  39.0 22.2 103.1 216.6
1994 12 10 04:00  15 50 55.237   +11 19 22.18  379134 0.9828  39.0 22.2 102.8 216.6
1994 12 10 04:01  15 50 51.078   +11 17 59.80  379772 0.9828  39.0 22.2 102.4 216.6
1994 12 10 04:02  15 50 46.934   +11 16 37.70  380410 0.9828  39.0 22.2 102.1 216.6
1994 12 10 04:03  15 50 42.805   +11 15 15.87  381048 0.9828  39.0 22.2 101.8 216.6
1994 12 10 04:04  15 50 38.689   +11 13 54.31  381686 0.9828  39.0 22.2 101.4 216.6
1994 12 10 04:05  15 50 34.589   +11 12 33.02  382324 0.9828  39.0 22.2 101.1 216.6
1994 12 10 04:06  15 50 30.502   +11 11 12.00  382962 0.9828  39.0 22.2 100.7 216.6
1994 12 10 04:07  15 50 26.430   +11 09 51.24  383600 0.9828  38.9 22.2 100.4 216.6
1994 12 10 04:08  15 50 22.372   +11 08 30.75  384238 0.9828  38.9 22.2 100.1 216.6
1994 12 10 04:09  15 50 18.327   +11 07 10.52  384877 0.9828  38.9 22.2 99.75 216.6
1994 12 10 04:10  15 50 14.297   +11 05 50.55  385515 0.9828  38.9 22.2 99.42 216.6
1994 12 10 04:11  15 50 10.281   +11 04 30.84  386154 0.9828  38.9 22.2 99.09 216.6
1994 12 10 04:12  15 50 06.279   +11 03 11.40  386793 0.9828  38.9 22.2 98.76 216.6
1994 12 10 04:13  15 50 02.291   +11 01 52.21  387431 0.9828  38.9 22.2 98.44 216.6
1994 12 10 04:14  15 49 58.316   +11 00 33.28  388070 0.9828  38.9 22.2 98.12 216.6
1994 12 10 04:15  15 49 54.355   +10 59 14.60  388709 0.9828  38.9 22.3 97.79 216.6
1994 12 10 04:16  15 49 50.407   +10 57 56.19  389348 0.9828  38.8 22.3 97.47 216.6
1994 12 10 04:17  15 49 46.473   +10 56 38.02  389987 0.9828  38.8 22.3 97.15 216.6
1994 12 10 04:18  15 49 42.553   +10 55 20.11  390626 0.9828  38.8 22.3 96.84 216.6
1994 12 10 04:19  15 49 38.645   +10 54 02.45  391265 0.9828  38.8 22.3 96.52 216.6
1994 12 10 04:20  15 49 34.752   +10 52 45.03  391905 0.9827  38.8 22.3 96.21 216.6
1994 12 10 04:21  15 49 30.871   +10 51 27.87  392544 0.9827  38.8 22.3 95.89 216.5
1994 12 10 04:22  15 49 27.003   +10 50 10.96  393183 0.9827  38.8 22.3 95.58 216.5
1994 12 10 04:23  15 49 23.149   +10 48 54.29  393823 0.9827  38.8 22.3 95.27 216.5
1994 12 10 04:24  15 49 19.308   +10 47 37.87  394463 0.9827  38.8 22.3 94.96 216.5
1994 12 10 04:25  15 49 15.480   +10 46 21.69  395102 0.9827  38.7 22.3 94.65 216.5
1994 12 10 04:26  15 49 11.664   +10 45 05.76  395742 0.9827  38.7 22.3 94.35 216.5
1994 12 10 04:27  15 49 07.862   +10 43 50.07  396382 0.9827  38.7 22.3 94.04 216.5
1994 12 10 04:28  15 49 04.072   +10 42 34.62  397022 0.9827  38.7 22.3 93.74 216.5
1994 12 10 04:29  15 49 00.295   +10 41 19.40  397662 0.9827  38.7 22.3 93.44 216.5
1994 12 10 04:30  15 48 56.530   +10 40 04.43  398302 0.9827  38.7 22.3 93.14 216.5
1994 12 10 04:31  15 48 52.778   +10 38 49.70  398942 0.9827  38.7 22.3 92.84 216.5
1994 12 10 04:32  15 48 49.039   +10 37 35.20  399582 0.9827  38.7 22.3 92.54 216.5
1994 12 10 04:33  15 48 45.312   +10 36 20.94  400222 0.9827  38.7 22.3 92.25 216.5
1994 12 10 04:34  15 48 41.598   +10 35 06.91  400862 0.9827  38.7 22.3 91.95 216.5
1994 12 10 04:35  15 48 37.896   +10 33 53.12  401503 0.9827  38.6 22.3 91.66 216.5
1994 12 10 04:36  15 48 34.206   +10 32 39.55  402143 0.9827  38.6 22.4 91.37 216.5
1994 12 10 04:37  15 48 30.528   +10 31 26.22  402784 0.9827  38.6 22.4 91.08 216.5
1994 12 10 04:38  15 48 26.863   +10 30 13.12  403424 0.9827  38.6 22.4 90.79 216.5
1994 12 10 04:39  15 48 23.210   +10 29 00.25  404065 0.9827  38.6 22.4 90.50 216.5
1994 12 10 04:40  15 48 19.568   +10 27 47.61  404706 0.9827  38.6 22.4 90.22 216.5
1994 12 10 04:41  15 48 15.939   +10 26 35.19  405347 0.9827  38.6 22.4 89.93 216.5
1994 12 10 04:42  15 48 12.322   +10 25 23.00  405987 0.9827  38.6 22.4 89.65 216.5
1994 12 10 04:43  15 48 08.716   +10 24 11.04  406628 0.9827  38.6 22.4 89.37 216.5
1994 12 10 04:44  15 48 05.122   +10 22 59.30  407269 0.9827  38.6 22.4 89.08 216.5
1994 12 10 04:45  15 48 01.541   +10 21 47.78  407910 0.9827  38.6 22.4 88.81 216.5
1994 12 10 04:46  15 47 57.970   +10 20 36.48  408552 0.9827  38.5 22.4 88.53 216.5
1994 12 10 04:47  15 47 54.412   +10 19 25.41  409193 0.9826  38.5 22.4 88.25 216.5
1994 12 10 04:48  15 47 50.865   +10 18 14.55  409834 0.9826  38.5 22.4 87.97 216.5
1994 12 10 04:49  15 47 47.329   +10 17 03.91  410475 0.9826  38.5 22.4 87.70 216.5
1994 12 10 04:50  15 47 43.805   +10 15 53.50  411117 0.9826  38.5 22.4 87.43 216.5
1994 12 10 04:51  15 47 40.292   +10 14 43.29  411758 0.9826  38.5 22.4 87.15 216.5
1994 12 10 04:52  15 47 36.791   +10 13 33.31  412400 0.9826  38.5 22.4 86.88 216.5
1994 12 10 04:53  15 47 33.301   +10 12 23.54  413041 0.9826  38.5 22.4 86.61 216.5
1994 12 10 04:54  15 47 29.822   +10 11 13.98  413683 0.9826  38.5 22.4 86.34 216.5
1994 12 10 04:55  15 47 26.355   +10 10 04.64  414325 0.9826  38.5 22.4 86.08 216.5
1994 12 10 04:56  15 47 22.898   +10 08 55.51  414966 0.9826  38.5 22.4 85.81 216.5
1994 12 10 04:57  15 47 19.453   +10 07 46.59  415608 0.9826  38.4 22.5 85.55 216.4
1994 12 10 04:58  15 47 16.019   +10 06 37.88  416250 0.9826  38.4 22.5 85.28 216.4
1994 12 10 04:59  15 47 12.596   +10 05 29.38  416892 0.9826  38.4 22.5 85.02 216.4